AFR816 LFPG-TFFF
Flight info
| Callsign | AFR816 |
|---|---|
| Flight time | N/A |
| Altitude | 34000 |
| Route | LGL UN491 UPALO/N0475F350 UN585 FEJAC DCT BADUR DCT REGHI/M082F340 DCT ETIKI DCT 46N020W 42N030W/M082F360 38N035W 33N040W 28N045W/M082F380 24N050W DCT DRDGE/N0473F380 DCT UMAMU UMAMU2D |
| Aircraft | B77W/H-SDE1E2E3FGHIJ2J3J4J5M1RWXY/LB1D1 |
Departure
| Time | 2026-05-07 10:26 |
|---|---|
| Airport | Charles de Gaulle International Airport (LFPG) |
Arrival
| Time | N/A |
|---|---|
| Airport | Martinique Aimé Césaire International Airport (TFFF) |
| Time | Latitude | Longitude | Altitude | Speed | Heading |
|---|---|---|---|---|---|
| 2026-05-07 10:04 | 49.00263 | 2.59000 | 359 ft | 0 kts | 84° |
| 2026-05-07 10:17 | 49.00263 | 2.58991 | 359 ft | 2 kts | 85° |
| 2026-05-07 10:17 | 49.00261 | 2.58961 | 362 ft | 3 kts | 88° |
| 2026-05-07 10:17 | 49.00260 | 2.58930 | 359 ft | 3 kts | 86° |
| 2026-05-07 10:17 | 49.00259 | 2.58906 | 359 ft | 3 kts | 88° |
| 2026-05-07 10:18 | 49.00261 | 2.58878 | 363 ft | 3 kts | 120° |
| 2026-05-07 10:18 | 49.00272 | 2.58860 | 368 ft | 3 kts | 171° |
| 2026-05-07 10:18 | 49.00291 | 2.58861 | 367 ft | 3 kts | 192° |
| 2026-05-07 10:18 | 49.00311 | 2.58867 | 363 ft | 3 kts | 187° |
| 2026-05-07 10:19 | 49.00321 | 2.58869 | 363 ft | 1 kts | 177° |
| 2026-05-07 10:19 | 49.00324 | 2.58869 | 363 ft | 0 kts | 175° |
| 2026-05-07 10:21 | 49.00321 | 2.58869 | 363 ft | 2 kts | 175° |
| 2026-05-07 10:21 | 49.00260 | 2.58876 | 363 ft | 14 kts | 176° |
| 2026-05-07 10:21 | 49.00165 | 2.58887 | 366 ft | 14 kts | 175° |
| 2026-05-07 10:22 | 49.00072 | 2.58906 | 368 ft | 14 kts | 163° |
| 2026-05-07 10:22 | 49.00044 | 2.58949 | 363 ft | 5 kts | 118° |
| 2026-05-07 10:22 | 49.00045 | 2.59007 | 359 ft | 9 kts | 81° |
| 2026-05-07 10:22 | 49.00063 | 2.59230 | 365 ft | 26 kts | 85° |
| 2026-05-07 10:23 | 49.00076 | 2.59504 | 367 ft | 26 kts | 85° |
| 2026-05-07 10:23 | 49.00091 | 2.59777 | 366 ft | 26 kts | 85° |
| 2026-05-07 10:23 | 49.00104 | 2.60049 | 364 ft | 26 kts | 85° |
| 2026-05-07 10:23 | 49.00096 | 2.60223 | 367 ft | 12 kts | 136° |
| 2026-05-07 10:24 | 49.00013 | 2.60250 | 363 ft | 12 kts | 179° |
| 2026-05-07 10:24 | 49.00000 | 2.60250 | 363 ft | 1 kts | 181° |
| 2026-05-07 10:24 | 48.99970 | 2.60247 | 361 ft | 14 kts | 185° |
| 2026-05-07 10:24 | 48.99874 | 2.60187 | 365 ft | 15 kts | 211° |
| 2026-05-07 10:25 | 48.99827 | 2.60090 | 364 ft | 0 kts | 263° |
| 2026-05-07 10:25 | 48.99827 | 2.60088 | 364 ft | 4 kts | 263° |
| 2026-05-07 10:25 | 48.99805 | 2.59705 | 361 ft | 85 kts | 267° |
| 2026-05-07 10:25 | 48.99730 | 2.58262 | 368 ft | 187 kts | 266° |
| 2026-05-07 10:26 | 48.99613 | 2.55992 | 910 ft | 235 kts | 265° |
| 2026-05-07 10:26 | 48.99356 | 2.53461 | 2616 ft | 237 kts | 262° |
| 2026-05-07 10:26 | 48.99136 | 2.51005 | 4011 ft | 236 kts | 264° |
| 2026-05-07 10:26 | 48.98980 | 2.48458 | 4703 ft | 253 kts | 266° |
| 2026-05-07 10:27 | 48.98824 | 2.45672 | 5090 ft | 272 kts | 266° |
| 2026-05-07 10:27 | 48.98679 | 2.42753 | 5908 ft | 278 kts | 265° |
| 2026-05-07 10:27 | 48.98496 | 2.39869 | 7168 ft | 265 kts | 263° |
| 2026-05-07 10:27 | 48.98287 | 2.37149 | 8371 ft | 257 kts | 263° |
| 2026-05-07 10:28 | 48.98122 | 2.34360 | 8946 ft | 272 kts | 266° |
| 2026-05-07 10:28 | 48.98032 | 2.31436 | 9633 ft | 281 kts | 266° |
| 2026-05-07 10:28 | 48.97941 | 2.28423 | 10377 ft | 289 kts | 266° |
| 2026-05-07 10:28 | 48.97824 | 2.25273 | 10753 ft | 311 kts | 266° |
| 2026-05-07 10:29 | 48.97671 | 2.21826 | 10960 ft | 338 kts | 265° |
| 2026-05-07 10:29 | 48.97487 | 2.18120 | 11236 ft | 362 kts | 265° |
| 2026-05-07 10:29 | 48.97280 | 2.14253 | 11968 ft | 371 kts | 265° |
| 2026-05-07 10:30 | 48.96833 | 2.06351 | 13873 ft | 378 kts | 265° |
| 2026-05-07 10:30 | 48.96601 | 2.02352 | 14760 ft | 381 kts | 265° |
| 2026-05-07 10:30 | 48.96365 | 1.98317 | 15573 ft | 386 kts | 264° |
| 2026-05-07 10:30 | 48.96125 | 1.94222 | 16370 ft | 391 kts | 264° |
| 2026-05-07 10:31 | 48.95880 | 1.90087 | 17188 ft | 395 kts | 264° |
| 2026-05-07 10:31 | 48.95630 | 1.85895 | 18002 ft | 400 kts | 264° |
| 2026-05-07 10:31 | 48.95375 | 1.81666 | 18748 ft | 404 kts | 264° |
| 2026-05-07 10:31 | 48.95115 | 1.77378 | 19440 ft | 408 kts | 264° |
| 2026-05-07 10:32 | 48.94851 | 1.73054 | 20142 ft | 413 kts | 264° |
| 2026-05-07 10:32 | 48.94583 | 1.68687 | 20823 ft | 417 kts | 264° |
| 2026-05-07 10:32 | 48.94311 | 1.64267 | 21501 ft | 422 kts | 264° |
| 2026-05-07 10:32 | 48.94034 | 1.59805 | 22169 ft | 426 kts | 264° |
| 2026-05-07 10:33 | 48.93757 | 1.55358 | 22817 ft | 430 kts | 264° |
| 2026-05-07 10:33 | 48.93472 | 1.50804 | 23457 ft | 434 kts | 264° |
| 2026-05-07 10:33 | 48.93182 | 1.46209 | 24010 ft | 438 kts | 264° |
| 2026-05-07 10:33 | 48.92888 | 1.41583 | 24563 ft | 441 kts | 264° |
| 2026-05-07 10:34 | 48.92590 | 1.36932 | 25114 ft | 444 kts | 264° |
| 2026-05-07 10:34 | 48.92288 | 1.32238 | 25667 ft | 447 kts | 264° |
| 2026-05-07 10:34 | 48.91983 | 1.27527 | 26194 ft | 449 kts | 264° |
| 2026-05-07 10:34 | 48.91674 | 1.22783 | 26704 ft | 452 kts | 264° |
| 2026-05-07 10:35 | 48.91360 | 1.18008 | 27192 ft | 455 kts | 264° |
| 2026-05-07 10:35 | 48.91042 | 1.13195 | 27655 ft | 458 kts | 264° |
| 2026-05-07 10:35 | 48.90721 | 1.08359 | 28117 ft | 461 kts | 264° |
| 2026-05-07 10:35 | 48.90396 | 1.03493 | 28566 ft | 464 kts | 264° |
| 2026-05-07 10:36 | 48.90066 | 0.98590 | 28999 ft | 467 kts | 264° |
| 2026-05-07 10:36 | 48.89737 | 0.93729 | 29404 ft | 469 kts | 264° |
| 2026-05-07 10:36 | 48.89402 | 0.88803 | 29917 ft | 468 kts | 264° |
| 2026-05-07 10:36 | 48.89065 | 0.83898 | 30474 ft | 466 kts | 263° |
| 2026-05-07 10:37 | 48.88448 | 0.79083 | 30940 ft | 464 kts | 251° |
| 2026-05-07 10:37 | 48.87026 | 0.74707 | 31301 ft | 463 kts | 240° |
| 2026-05-07 10:37 | 48.85383 | 0.70491 | 31642 ft | 464 kts | 240° |
| 2026-05-07 10:37 | 48.83788 | 0.66224 | 32072 ft | 463 kts | 242° |
| 2026-05-07 10:38 | 48.82251 | 0.61932 | 32541 ft | 461 kts | 242° |
| 2026-05-07 10:38 | 48.80758 | 0.57699 | 32987 ft | 459 kts | 243° |
| 2026-05-07 10:38 | 48.79562 | 0.53230 | 33213 ft | 459 kts | 257° |
| 2026-05-07 10:38 | 48.79221 | 0.48358 | 33485 ft | 461 kts | 273° |
| 2026-05-07 10:39 | 48.79563 | 0.43612 | 33785 ft | 459 kts | 276° |
| 2026-05-07 10:39 | 48.79934 | 0.38790 | 33992 ft | 463 kts | 275° |
| 2026-05-07 10:39 | 48.80598 | 0.29052 | 34063 ft | 463 kts | 275° |
| 2026-05-07 10:40 | 48.81193 | 0.19396 | 34058 ft | 458 kts | 274° |
| 2026-05-07 10:40 | 48.81769 | 0.09785 | 34067 ft | 457 kts | 274° |
| 2026-05-07 10:41 | 48.82339 | 0.00175 | 34065 ft | 457 kts | 274° |
| 2026-05-07 10:41 | 48.82904 | -0.09450 | 34068 ft | 458 kts | 274° |
| 2026-05-07 10:42 | 48.83463 | -0.19094 | 34067 ft | 459 kts | 274° |
| 2026-05-07 10:42 | 48.84010 | -0.28751 | 34066 ft | 460 kts | 274° |
| 2026-05-07 10:43 | 48.84528 | -0.38446 | 34065 ft | 460 kts | 274° |
| 2026-05-07 10:43 | 48.85032 | -0.48105 | 34284 ft | 464 kts | 274° |
| 2026-05-07 10:44 | 48.85284 | -0.52983 | 34613 ft | 462 kts | 274° |
| 2026-05-07 10:44 | 48.85535 | -0.57848 | 34963 ft | 461 kts | 274° |
| 2026-05-07 10:44 | 48.85783 | -0.62693 | 35265 ft | 460 kts | 274° |
| 2026-05-07 10:44 | 48.86029 | -0.67537 | 35541 ft | 460 kts | 274° |
| 2026-05-07 10:45 | 48.86274 | -0.72388 | 35785 ft | 461 kts | 274° |
| 2026-05-07 10:45 | 48.86517 | -0.77255 | 35972 ft | 462 kts | 274° |
| 2026-05-07 10:45 | 48.86998 | -0.87019 | 36051 ft | 463 kts | 273° |
| 2026-05-07 10:46 | 48.87470 | -0.96740 | 36051 ft | 460 kts | 273° |
| 2026-05-07 10:46 | 48.87930 | -1.06415 | 36056 ft | 458 kts | 273° |
| 2026-05-07 10:47 | 48.88381 | -1.16059 | 36066 ft | 457 kts | 273° |
| 2026-05-07 10:47 | 48.88824 | -1.25707 | 36051 ft | 458 kts | 273° |
| 2026-05-07 10:48 | 48.89260 | -1.35384 | 36063 ft | 459 kts | 273° |
| 2026-05-07 10:48 | 48.89690 | -1.45068 | 36053 ft | 460 kts | 273° |
| 2026-05-07 10:49 | 48.90111 | -1.54702 | 36055 ft | 460 kts | 273° |
| 2026-05-07 10:49 | 48.90539 | -1.64424 | 36051 ft | 461 kts | 273° |
| 2026-05-07 10:50 | 48.90700 | -1.74170 | 36047 ft | 460 kts | 265° |
| 2026-05-07 10:50 | 48.89707 | -1.83755 | 36053 ft | 459 kts | 256° |
| 2026-05-07 10:51 | 48.88147 | -1.93163 | 36051 ft | 459 kts | 255° |
| 2026-05-07 10:51 | 48.86595 | -2.02539 | 36048 ft | 460 kts | 256° |
| 2026-05-07 10:52 | 48.85055 | -2.11952 | 36047 ft | 460 kts | 256° |
| 2026-05-07 10:52 | 48.83514 | -2.21389 | 36039 ft | 460 kts | 255° |
| 2026-05-07 10:53 | 48.81967 | -2.30802 | 36044 ft | 459 kts | 255° |
| 2026-05-07 10:53 | 48.80411 | -2.40220 | 36044 ft | 459 kts | 255° |
| 2026-05-07 10:54 | 48.78851 | -2.49611 | 36025 ft | 459 kts | 255° |
| 2026-05-07 10:54 | 48.77290 | -2.58943 | 36031 ft | 459 kts | 255° |
| 2026-05-07 10:55 | 48.75699 | -2.68306 | 36028 ft | 458 kts | 255° |
| 2026-05-07 10:55 | 48.74100 | -2.77650 | 36029 ft | 458 kts | 255° |
| 2026-05-07 10:56 | 48.72495 | -2.87011 | 36021 ft | 458 kts | 255° |
| 2026-05-07 10:56 | 48.70923 | -2.96363 | 36022 ft | 458 kts | 258° |
| 2026-05-07 10:57 | 48.69787 | -3.05854 | 36031 ft | 459 kts | 259° |
| 2026-05-07 10:57 | 48.68683 | -3.15376 | 36017 ft | 459 kts | 259° |
| 2026-05-07 10:58 | 48.67561 | -3.24892 | 36023 ft | 459 kts | 259° |
| 2026-05-07 10:58 | 48.66421 | -3.34395 | 36016 ft | 459 kts | 259° |
| 2026-05-07 10:59 | 48.65275 | -3.43838 | 36029 ft | 459 kts | 259° |
| 2026-05-07 10:59 | 48.64113 | -3.53348 | 36020 ft | 460 kts | 258° |
| 2026-05-07 11:00 | 48.62943 | -3.62851 | 36017 ft | 460 kts | 258° |
| 2026-05-07 11:00 | 48.61765 | -3.72365 | 36017 ft | 459 kts | 258° |
| 2026-05-07 11:01 | 48.60581 | -3.81856 | 35995 ft | 459 kts | 258° |
| 2026-05-07 11:01 | 48.59389 | -3.91351 | 36000 ft | 459 kts | 258° |
| 2026-05-07 11:02 | 48.58392 | -3.99231 | 35999 ft | 460 kts | 258° |
| 2026-05-07 11:02 | 48.56987 | -4.10269 | 36003 ft | 460 kts | 258° |
| 2026-05-07 11:03 | 48.55968 | -4.18217 | 35993 ft | 460 kts | 258° |
| 2026-05-07 11:03 | 48.54744 | -4.27701 | 36002 ft | 460 kts | 258° |
| 2026-05-07 11:04 | 48.53514 | -4.37177 | 36009 ft | 460 kts | 257° |
| 2026-05-07 11:04 | 48.52273 | -4.46658 | 36009 ft | 460 kts | 257° |
| 2026-05-07 11:05 | 48.51025 | -4.56134 | 36024 ft | 461 kts | 257° |
| 2026-05-07 11:05 | 48.49777 | -4.65548 | 36020 ft | 461 kts | 257° |
| 2026-05-07 11:06 | 48.48511 | -4.75040 | 36005 ft | 461 kts | 257° |
| 2026-05-07 11:06 | 48.47236 | -4.84528 | 36009 ft | 461 kts | 257° |
| 2026-05-07 11:07 | 48.45954 | -4.94009 | 36015 ft | 461 kts | 257° |
| 2026-05-07 11:07 | 48.44667 | -5.03465 | 36013 ft | 461 kts | 257° |
| 2026-05-07 11:08 | 48.43371 | -5.12928 | 36014 ft | 461 kts | 257° |
| 2026-05-07 11:08 | 48.42076 | -5.22320 | 36023 ft | 461 kts | 256° |
| 2026-05-07 11:09 | 48.40762 | -5.31785 | 36016 ft | 461 kts | 256° |
| 2026-05-07 11:09 | 48.39441 | -5.41249 | 36021 ft | 461 kts | 256° |
| 2026-05-07 11:10 | 48.38111 | -5.50705 | 36021 ft | 461 kts | 256° |
| 2026-05-07 11:10 | 48.36776 | -5.60147 | 36028 ft | 461 kts | 256° |
| 2026-05-07 11:11 | 48.35431 | -5.69596 | 36021 ft | 462 kts | 256° |
| 2026-05-07 11:11 | 48.34087 | -5.78978 | 36019 ft | 462 kts | 256° |
| 2026-05-07 11:12 | 48.32726 | -5.88424 | 36015 ft | 462 kts | 256° |
| 2026-05-07 11:12 | 48.31356 | -5.97871 | 36018 ft | 463 kts | 256° |
| 2026-05-07 11:13 | 48.29977 | -6.07319 | 36018 ft | 463 kts | 256° |
| 2026-05-07 11:13 | 48.28590 | -6.16763 | 36036 ft | 463 kts | 256° |
| 2026-05-07 11:14 | 48.27195 | -6.26207 | 36032 ft | 463 kts | 256° |
| 2026-05-07 11:14 | 48.25793 | -6.35644 | 36029 ft | 463 kts | 256° |
| 2026-05-07 11:15 | 48.24380 | -6.45095 | 36023 ft | 463 kts | 256° |
| 2026-05-07 11:15 | 48.22971 | -6.54463 | 36021 ft | 463 kts | 255° |
| 2026-05-07 11:16 | 48.21536 | -6.63943 | 36034 ft | 463 kts | 255° |
| 2026-05-07 11:16 | 48.20112 | -6.73303 | 36019 ft | 463 kts | 255° |
| 2026-05-07 11:17 | 48.18669 | -6.82725 | 36018 ft | 463 kts | 255° |
| 2026-05-07 11:17 | 48.17221 | -6.92126 | 36026 ft | 463 kts | 255° |
| 2026-05-07 11:18 | 48.15766 | -7.01516 | 36020 ft | 463 kts | 255° |
| 2026-05-07 11:18 | 48.14303 | -7.10909 | 36022 ft | 462 kts | 255° |
| 2026-05-07 11:19 | 48.12833 | -7.20286 | 36019 ft | 462 kts | 255° |
| 2026-05-07 11:19 | 48.11358 | -7.29644 | 36023 ft | 462 kts | 255° |
| 2026-05-07 11:20 | 48.09885 | -7.38934 | 36018 ft | 462 kts | 255° |
| 2026-05-07 11:20 | 48.08394 | -7.48290 | 36020 ft | 462 kts | 255° |
| 2026-05-07 11:21 | 48.06896 | -7.57632 | 36019 ft | 462 kts | 255° |
| 2026-05-07 11:21 | 48.05392 | -7.66962 | 36019 ft | 462 kts | 255° |
| 2026-05-07 11:22 | 48.03879 | -7.76296 | 36020 ft | 462 kts | 255° |
| 2026-05-07 11:22 | 48.02359 | -7.85628 | 36013 ft | 462 kts | 255° |
| 2026-05-07 11:23 | 48.00843 | -7.94891 | 36014 ft | 462 kts | 256° |
| 2026-05-07 11:23 | 47.99950 | -8.04388 | 36015 ft | 463 kts | 267° |
| 2026-05-07 11:24 | 47.99980 | -8.13999 | 36022 ft | 463 kts | 269° |
| 2026-05-07 11:24 | 48.00038 | -8.23624 | 36016 ft | 463 kts | 269° |
| 2026-05-07 11:25 | 48.00058 | -8.33247 | 36011 ft | 463 kts | 269° |
| 2026-05-07 11:25 | 48.00058 | -8.42848 | 36014 ft | 462 kts | 269° |
| 2026-05-07 11:26 | 48.00049 | -8.52444 | 36020 ft | 462 kts | 269° |
| 2026-05-07 11:26 | 48.00034 | -8.62037 | 36012 ft | 462 kts | 269° |
| 2026-05-07 11:27 | 48.00009 | -8.71622 | 36010 ft | 461 kts | 268° |
| 2026-05-07 11:27 | 47.99333 | -8.81067 | 36018 ft | 460 kts | 259° |
| 2026-05-07 11:28 | 47.98123 | -8.90441 | 36015 ft | 460 kts | 259° |
| 2026-05-07 11:28 | 47.96915 | -8.99808 | 36013 ft | 460 kts | 259° |
| 2026-05-07 11:29 | 47.95721 | -9.09184 | 36014 ft | 460 kts | 259° |
| 2026-05-07 11:29 | 47.94528 | -9.18569 | 36015 ft | 460 kts | 259° |
| 2026-05-07 11:30 | 47.93331 | -9.27944 | 36019 ft | 460 kts | 259° |
| 2026-05-07 11:30 | 47.92126 | -9.37314 | 36013 ft | 460 kts | 259° |
| 2026-05-07 11:31 | 47.90912 | -9.46686 | 36014 ft | 460 kts | 259° |
| 2026-05-07 11:31 | 47.89689 | -9.56066 | 36015 ft | 460 kts | 259° |
| 2026-05-07 11:32 | 47.87843 | -9.70092 | 36015 ft | 460 kts | 259° |
| 2026-05-07 11:33 | 47.86610 | -9.79393 | 36009 ft | 460 kts | 259° |
| 2026-05-07 11:33 | 47.85362 | -9.88741 | 36011 ft | 459 kts | 259° |
| 2026-05-07 11:34 | 47.84107 | -9.98076 | 36013 ft | 459 kts | 259° |
| 2026-05-07 11:34 | 47.82848 | -10.07384 | 36014 ft | 459 kts | 259° |
| 2026-05-07 11:35 | 47.81581 | -10.16691 | 36014 ft | 458 kts | 259° |
| 2026-05-07 11:35 | 47.80308 | -10.25988 | 36013 ft | 458 kts | 259° |
| 2026-05-07 11:36 | 47.79036 | -10.35209 | 36013 ft | 458 kts | 259° |
| 2026-05-07 11:36 | 47.77750 | -10.44478 | 36013 ft | 457 kts | 259° |
| 2026-05-07 11:37 | 47.76458 | -10.53734 | 36012 ft | 457 kts | 259° |
| 2026-05-07 11:37 | 47.75159 | -10.62983 | 36009 ft | 457 kts | 259° |
| 2026-05-07 11:38 | 47.73853 | -10.72221 | 36018 ft | 457 kts | 259° |
| 2026-05-07 11:38 | 47.72538 | -10.81463 | 36015 ft | 457 kts | 259° |
| 2026-05-07 11:39 | 47.71218 | -10.90686 | 36016 ft | 457 kts | 259° |
| 2026-05-07 11:39 | 47.69888 | -10.99922 | 36003 ft | 457 kts | 259° |
| 2026-05-07 11:40 | 47.68553 | -11.09136 | 36013 ft | 456 kts | 259° |
| 2026-05-07 11:40 | 47.67220 | -11.18284 | 36006 ft | 456 kts | 259° |
| 2026-05-07 11:41 | 47.65873 | -11.27470 | 36015 ft | 455 kts | 259° |
| 2026-05-07 11:41 | 47.64519 | -11.36653 | 36015 ft | 455 kts | 259° |
| 2026-05-07 11:42 | 47.63161 | -11.45807 | 36012 ft | 454 kts | 259° |
| 2026-05-07 11:42 | 47.61799 | -11.54937 | 36014 ft | 453 kts | 259° |
| 2026-05-07 11:43 | 47.60429 | -11.64061 | 36014 ft | 452 kts | 259° |
| 2026-05-07 11:43 | 47.59056 | -11.73152 | 36008 ft | 452 kts | 259° |
| 2026-05-07 11:44 | 47.57679 | -11.82225 | 36010 ft | 451 kts | 259° |
| 2026-05-07 11:44 | 47.56298 | -11.91271 | 36014 ft | 449 kts | 259° |
| 2026-05-07 11:45 | 47.54922 | -12.00223 | 36005 ft | 448 kts | 259° |
| 2026-05-07 11:45 | 47.53534 | -12.09215 | 36006 ft | 448 kts | 259° |
| 2026-05-07 11:46 | 47.52139 | -12.18196 | 36014 ft | 447 kts | 259° |
| 2026-05-07 11:46 | 47.50738 | -12.27170 | 36006 ft | 447 kts | 259° |
| 2026-05-07 11:47 | 47.49334 | -12.36110 | 36008 ft | 446 kts | 259° |
| 2026-05-07 11:47 | 47.48161 | -12.43545 | 36007 ft | 446 kts | 259° |
| 2026-05-07 11:48 | 47.46513 | -12.53935 | 36006 ft | 446 kts | 258° |
| 2026-05-07 11:48 | 47.45319 | -12.61419 | 36001 ft | 446 kts | 258° |
| 2026-05-07 11:49 | 47.43888 | -12.70345 | 36010 ft | 446 kts | 258° |
| 2026-05-07 11:49 | 47.42461 | -12.79199 | 36007 ft | 446 kts | 258° |
| 2026-05-07 11:50 | 47.41016 | -12.88114 | 36009 ft | 446 kts | 258° |
| 2026-05-07 11:50 | 47.39563 | -12.97032 | 36008 ft | 446 kts | 258° |
| 2026-05-07 11:51 | 47.38106 | -13.05930 | 36007 ft | 446 kts | 258° |
| 2026-05-07 11:51 | 47.36641 | -13.14828 | 36009 ft | 446 kts | 258° |
| 2026-05-07 11:52 | 47.35170 | -13.23718 | 36006 ft | 446 kts | 258° |
| 2026-05-07 11:52 | 47.33690 | -13.32609 | 36006 ft | 446 kts | 258° |
| 2026-05-07 11:53 | 47.32205 | -13.41487 | 36006 ft | 446 kts | 257° |
| 2026-05-07 11:53 | 47.30715 | -13.50353 | 36007 ft | 446 kts | 257° |
| 2026-05-07 11:54 | 47.29217 | -13.59220 | 36007 ft | 445 kts | 257° |
| 2026-05-07 11:54 | 47.27725 | -13.68009 | 36008 ft | 445 kts | 257° |
| 2026-05-07 11:55 | 47.26215 | -13.76850 | 36007 ft | 445 kts | 257° |
| 2026-05-07 11:55 | 47.24702 | -13.85674 | 36004 ft | 444 kts | 256° |
| 2026-05-07 11:56 | 47.23181 | -13.94496 | 36011 ft | 444 kts | 256° |
| 2026-05-07 11:56 | 47.21653 | -14.03313 | 36010 ft | 445 kts | 256° |
| 2026-05-07 11:57 | 47.20126 | -14.12077 | 36003 ft | 445 kts | 256° |
| 2026-05-07 11:57 | 47.18584 | -14.20887 | 36001 ft | 445 kts | 256° |
| 2026-05-07 11:58 | 47.17033 | -14.29707 | 36004 ft | 445 kts | 256° |
| 2026-05-07 11:58 | 47.15476 | -14.38517 | 36009 ft | 446 kts | 256° |
| 2026-05-07 11:59 | 47.13910 | -14.47335 | 36005 ft | 446 kts | 256° |
| 2026-05-07 11:59 | 47.12338 | -14.56136 | 35994 ft | 446 kts | 255° |
| 2026-05-07 12:00 | 47.10758 | -14.64942 | 35998 ft | 446 kts | 255° |
| 2026-05-07 12:00 | 47.09175 | -14.73729 | 36001 ft | 445 kts | 255° |
| 2026-05-07 12:01 | 47.07584 | -14.82516 | 36005 ft | 445 kts | 255° |
| 2026-05-07 12:01 | 47.05985 | -14.91302 | 35996 ft | 445 kts | 255° |
| 2026-05-07 12:02 | 47.04380 | -15.00074 | 36000 ft | 445 kts | 255° |
| 2026-05-07 12:02 | 47.02769 | -15.08846 | 35997 ft | 445 kts | 255° |
| 2026-05-07 12:03 | 47.01150 | -15.17613 | 35996 ft | 445 kts | 255° |
| 2026-05-07 12:03 | 46.99536 | -15.26313 | 35991 ft | 445 kts | 255° |
| 2026-05-07 12:04 | 46.97906 | -15.35065 | 35990 ft | 445 kts | 254° |
| 2026-05-07 12:04 | 46.96267 | -15.43818 | 35980 ft | 445 kts | 254° |
| 2026-05-07 12:05 | 46.94621 | -15.52564 | 35997 ft | 446 kts | 254° |
| 2026-05-07 12:05 | 46.92966 | -15.61321 | 35994 ft | 446 kts | 254° |
| 2026-05-07 12:06 | 46.91303 | -15.70081 | 35997 ft | 447 kts | 254° |
| 2026-05-07 12:06 | 46.89643 | -15.78783 | 35987 ft | 447 kts | 253° |
| 2026-05-07 12:07 | 46.87964 | -15.87545 | 35986 ft | 447 kts | 253° |
| 2026-05-07 12:07 | 46.86278 | -15.96300 | 35999 ft | 448 kts | 253° |
| 2026-05-07 12:08 | 46.84584 | -16.05059 | 35981 ft | 448 kts | 253° |
| 2026-05-07 12:08 | 46.82885 | -16.13806 | 35970 ft | 448 kts | 253° |
| 2026-05-07 12:09 | 46.81175 | -16.22566 | 35987 ft | 448 kts | 253° |
| 2026-05-07 12:09 | 46.79460 | -16.31314 | 35988 ft | 448 kts | 253° |
| 2026-05-07 12:10 | 46.77738 | -16.40058 | 35986 ft | 449 kts | 253° |
| 2026-05-07 12:10 | 46.76007 | -16.48807 | 35981 ft | 449 kts | 252° |
| 2026-05-07 12:11 | 46.74276 | -16.57518 | 35989 ft | 449 kts | 252° |
| 2026-05-07 12:11 | 46.72530 | -16.66266 | 35976 ft | 449 kts | 252° |
| 2026-05-07 12:12 | 46.70777 | -16.75011 | 35970 ft | 450 kts | 252° |
| 2026-05-07 12:12 | 46.69015 | -16.83758 | 35975 ft | 450 kts | 252° |
| 2026-05-07 12:13 | 46.67250 | -16.92483 | 35990 ft | 449 kts | 252° |
| 2026-05-07 12:13 | 46.65477 | -17.01208 | 35986 ft | 449 kts | 252° |
| 2026-05-07 12:14 | 46.63698 | -17.09929 | 35975 ft | 449 kts | 252° |
| 2026-05-07 12:14 | 46.61913 | -17.18638 | 35969 ft | 449 kts | 252° |
| 2026-05-07 12:15 | 46.60121 | -17.27339 | 35964 ft | 449 kts | 252° |
| 2026-05-07 12:15 | 46.58322 | -17.36041 | 35983 ft | 449 kts | 252° |
| 2026-05-07 12:16 | 46.56527 | -17.44689 | 35964 ft | 449 kts | 251° |
| 2026-05-07 12:16 | 46.54716 | -17.53373 | 35964 ft | 449 kts | 251° |
| 2026-05-07 12:17 | 46.52898 | -17.62054 | 35967 ft | 449 kts | 251° |
| 2026-05-07 12:17 | 46.51072 | -17.70732 | 35967 ft | 449 kts | 251° |
| 2026-05-07 12:18 | 46.49238 | -17.79418 | 35966 ft | 450 kts | 251° |
| 2026-05-07 12:18 | 46.47396 | -17.88098 | 35962 ft | 450 kts | 251° |
| 2026-05-07 12:19 | 46.45560 | -17.96717 | 35967 ft | 450 kts | 251° |
| 2026-05-07 12:19 | 46.43707 | -18.05376 | 35958 ft | 450 kts | 251° |
| 2026-05-07 12:20 | 46.41846 | -18.14040 | 35960 ft | 450 kts | 250° |
| 2026-05-07 12:20 | 46.39978 | -18.22702 | 35954 ft | 450 kts | 250° |
| 2026-05-07 12:21 | 46.38103 | -18.31356 | 35954 ft | 451 kts | 250° |
| 2026-05-07 12:21 | 46.36217 | -18.40027 | 35960 ft | 451 kts | 250° |
| 2026-05-07 12:22 | 46.34323 | -18.48696 | 35948 ft | 451 kts | 250° |
| 2026-05-07 12:22 | 46.32423 | -18.57359 | 35950 ft | 452 kts | 250° |
| 2026-05-07 12:23 | 46.30525 | -18.65975 | 35946 ft | 452 kts | 250° |
| 2026-05-07 12:23 | 46.28608 | -18.74644 | 35945 ft | 453 kts | 250° |
| 2026-05-07 12:24 | 46.26681 | -18.83321 | 35945 ft | 453 kts | 250° |
| 2026-05-07 12:24 | 46.24747 | -18.91992 | 35943 ft | 454 kts | 249° |
| 2026-05-07 12:25 | 46.22800 | -19.00689 | 35939 ft | 454 kts | 249° |
| 2026-05-07 12:25 | 46.20864 | -19.09301 | 35952 ft | 454 kts | 249° |
| 2026-05-07 12:26 | 46.18905 | -19.17981 | 35936 ft | 455 kts | 249° |
| 2026-05-07 12:26 | 46.16936 | -19.26666 | 35934 ft | 455 kts | 249° |
| 2026-05-07 12:27 | 46.14959 | -19.35353 | 35933 ft | 456 kts | 249° |
| 2026-05-07 12:27 | 46.12975 | -19.44037 | 35931 ft | 456 kts | 249° |
| 2026-05-07 12:28 | 46.10992 | -19.52682 | 35927 ft | 457 kts | 249° |
| 2026-05-07 12:28 | 46.08991 | -19.61373 | 35927 ft | 458 kts | 249° |
| 2026-05-07 12:29 | 46.06975 | -19.70090 | 35927 ft | 459 kts | 249° |
| 2026-05-07 12:29 | 46.04950 | -19.78814 | 35921 ft | 460 kts | 249° |
| 2026-05-07 12:30 | 46.02916 | -19.87545 | 35926 ft | 461 kts | 249° |
| 2026-05-07 12:30 | 46.00866 | -19.96308 | 35922 ft | 462 kts | 249° |
| 2026-05-07 12:31 | 45.98468 | -20.04861 | 35918 ft | 459 kts | 242° |
| 2026-05-07 12:31 | 45.95679 | -20.13120 | 35916 ft | 460 kts | 241° |
| 2026-05-07 12:32 | 45.92896 | -20.21338 | 35911 ft | 461 kts | 242° |
| 2026-05-07 12:32 | 45.90100 | -20.29639 | 35911 ft | 461 kts | 242° |
| 2026-05-07 12:33 | 45.85912 | -20.42090 | 35914 ft | 462 kts | 242° |
| 2026-05-07 12:33 | 45.83583 | -20.48991 | 35909 ft | 462 kts | 242° |
| 2026-05-07 12:34 | 45.80775 | -20.57289 | 35906 ft | 462 kts | 242° |
| 2026-05-07 12:34 | 45.77960 | -20.65575 | 35904 ft | 462 kts | 242° |
| 2026-05-07 12:35 | 45.75141 | -20.73852 | 35904 ft | 462 kts | 242° |
| 2026-05-07 12:35 | 45.72319 | -20.82107 | 35900 ft | 461 kts | 241° |
| 2026-05-07 12:36 | 45.69489 | -20.90363 | 35904 ft | 462 kts | 241° |
| 2026-05-07 12:36 | 45.66667 | -20.98567 | 35886 ft | 462 kts | 241° |
| 2026-05-07 12:37 | 45.63822 | -21.06816 | 35894 ft | 463 kts | 241° |
| 2026-05-07 12:37 | 45.60970 | -21.15057 | 35893 ft | 463 kts | 241° |
| 2026-05-07 12:38 | 45.58098 | -21.23332 | 35882 ft | 465 kts | 241° |
| 2026-05-07 12:38 | 45.55217 | -21.31604 | 35880 ft | 466 kts | 241° |
| 2026-05-07 12:39 | 45.52328 | -21.39876 | 35882 ft | 466 kts | 241° |
| 2026-05-07 12:39 | 45.49428 | -21.48154 | 35886 ft | 466 kts | 241° |
| 2026-05-07 12:40 | 45.46520 | -21.56430 | 35884 ft | 468 kts | 241° |
| 2026-05-07 12:40 | 45.43600 | -21.64712 | 35865 ft | 468 kts | 241° |
| 2026-05-07 12:41 | 45.40686 | -21.72953 | 35867 ft | 469 kts | 241° |
| 2026-05-07 12:41 | 45.37747 | -21.81240 | 35889 ft | 469 kts | 241° |
| 2026-05-07 12:42 | 45.34798 | -21.89528 | 35866 ft | 470 kts | 241° |
| 2026-05-07 12:42 | 45.31839 | -21.97821 | 35870 ft | 470 kts | 241° |
| 2026-05-07 12:43 | 45.28871 | -22.06111 | 35866 ft | 471 kts | 241° |
| 2026-05-07 12:43 | 45.25893 | -22.14403 | 35870 ft | 471 kts | 241° |
| 2026-05-07 12:44 | 45.22906 | -22.22697 | 35860 ft | 472 kts | 241° |
| 2026-05-07 12:44 | 45.19909 | -22.30991 | 35858 ft | 473 kts | 240° |
| 2026-05-07 12:45 | 45.16904 | -22.39284 | 35855 ft | 473 kts | 241° |
| 2026-05-07 12:45 | 45.13890 | -22.47576 | 35864 ft | 473 kts | 241° |
| 2026-05-07 12:46 | 45.10883 | -22.55823 | 35853 ft | 475 kts | 241° |
| 2026-05-07 12:46 | 45.07846 | -22.64127 | 35850 ft | 475 kts | 240° |
| 2026-05-07 12:47 | 45.04796 | -22.72442 | 35844 ft | 476 kts | 240° |
| 2026-05-07 12:47 | 45.01736 | -22.80758 | 35846 ft | 477 kts | 241° |
| 2026-05-07 12:48 | 44.98668 | -22.89073 | 35841 ft | 478 kts | 241° |
| 2026-05-07 12:48 | 44.95586 | -22.97396 | 35843 ft | 478 kts | 240° |
| 2026-05-07 12:49 | 44.92517 | -23.05663 | 35835 ft | 478 kts | 240° |
| 2026-05-07 12:49 | 44.89417 | -23.13983 | 35824 ft | 480 kts | 240° |
| 2026-05-07 12:50 | 44.86306 | -23.22312 | 35839 ft | 481 kts | 240° |
| 2026-05-07 12:50 | 44.83180 | -23.30654 | 35829 ft | 482 kts | 240° |
| 2026-05-07 12:51 | 44.80044 | -23.39000 | 35829 ft | 483 kts | 240° |
| 2026-05-07 12:51 | 44.76890 | -23.47366 | 35823 ft | 484 kts | 240° |
| 2026-05-07 12:52 | 44.73728 | -23.55728 | 35823 ft | 485 kts | 240° |
| 2026-05-07 12:52 | 44.70553 | -23.64097 | 35810 ft | 485 kts | 239° |
| 2026-05-07 12:53 | 44.67372 | -23.72458 | 35815 ft | 485 kts | 239° |
| 2026-05-07 12:53 | 44.64184 | -23.80816 | 35802 ft | 485 kts | 239° |
| 2026-05-07 12:54 | 44.60995 | -23.89152 | 35811 ft | 484 kts | 240° |
| 2026-05-07 12:54 | 44.57798 | -23.97481 | 35800 ft | 484 kts | 240° |
| 2026-05-07 12:55 | 44.54600 | -24.05785 | 35802 ft | 484 kts | 240° |
| 2026-05-07 12:55 | 44.51396 | -24.14085 | 35798 ft | 484 kts | 240° |
| 2026-05-07 12:56 | 44.48189 | -24.22366 | 35797 ft | 484 kts | 240° |
| 2026-05-07 12:56 | 44.44972 | -24.30648 | 35796 ft | 484 kts | 240° |
| 2026-05-07 12:57 | 44.41769 | -24.38869 | 35791 ft | 484 kts | 241° |
| 2026-05-07 12:57 | 44.38537 | -24.47141 | 35793 ft | 485 kts | 240° |
| 2026-05-07 12:58 | 44.35299 | -24.55403 | 35791 ft | 485 kts | 240° |
| 2026-05-07 12:58 | 44.32051 | -24.63668 | 35798 ft | 485 kts | 241° |
| 2026-05-07 12:59 | 44.28788 | -24.71942 | 35800 ft | 488 kts | 241° |
| 2026-05-07 12:59 | 44.25488 | -24.80291 | 35789 ft | 493 kts | 241° |
| 2026-05-07 13:00 | 44.22168 | -24.88664 | 35796 ft | 493 kts | 241° |
| 2026-05-07 13:00 | 44.18845 | -24.97017 | 35794 ft | 493 kts | 242° |
| 2026-05-07 13:01 | 44.15514 | -25.05369 | 35806 ft | 493 kts | 242° |
| 2026-05-07 13:01 | 44.12177 | -25.13710 | 35812 ft | 493 kts | 242° |
| 2026-05-07 13:02 | 44.08831 | -25.22048 | 35797 ft | 493 kts | 241° |
| 2026-05-07 13:02 | 44.05499 | -25.30328 | 35805 ft | 494 kts | 242° |
| 2026-05-07 13:03 | 44.02138 | -25.38656 | 35799 ft | 495 kts | 242° |
| 2026-05-07 13:03 | 43.98758 | -25.47006 | 35807 ft | 496 kts | 242° |
| 2026-05-07 13:04 | 43.95371 | -25.55346 | 35808 ft | 496 kts | 242° |
| 2026-05-07 13:04 | 43.91975 | -25.63687 | 35818 ft | 497 kts | 242° |
| 2026-05-07 13:05 | 43.88564 | -25.72036 | 35828 ft | 497 kts | 242° |
| 2026-05-07 13:05 | 43.85148 | -25.80378 | 35833 ft | 497 kts | 242° |
| 2026-05-07 13:06 | 43.81727 | -25.88706 | 35823 ft | 497 kts | 242° |
| 2026-05-07 13:06 | 43.78316 | -25.96990 | 35828 ft | 497 kts | 242° |
| 2026-05-07 13:07 | 43.74884 | -26.05297 | 35834 ft | 497 kts | 242° |
| 2026-05-07 13:07 | 43.71442 | -26.13605 | 35828 ft | 498 kts | 242° |
| 2026-05-07 13:08 | 43.67986 | -26.21913 | 35837 ft | 498 kts | 243° |
| 2026-05-07 13:08 | 43.64527 | -26.30213 | 35846 ft | 498 kts | 243° |
| 2026-05-07 13:09 | 43.61071 | -26.38479 | 35844 ft | 497 kts | 242° |
| 2026-05-07 13:09 | 43.57633 | -26.46678 | 35852 ft | 496 kts | 243° |
| 2026-05-07 13:10 | 43.54164 | -26.54931 | 35851 ft | 496 kts | 243° |
| 2026-05-07 13:10 | 43.50698 | -26.63157 | 35862 ft | 496 kts | 242° |
| 2026-05-07 13:11 | 43.47219 | -26.71385 | 35860 ft | 497 kts | 242° |
| 2026-05-07 13:11 | 43.43737 | -26.79596 | 35865 ft | 497 kts | 243° |
| 2026-05-07 13:12 | 43.40246 | -26.87810 | 35869 ft | 497 kts | 242° |
| 2026-05-07 13:12 | 43.36752 | -26.96010 | 35867 ft | 497 kts | 243° |
| 2026-05-07 13:13 | 43.33267 | -27.04153 | 35864 ft | 497 kts | 243° |
| 2026-05-07 13:13 | 43.29754 | -27.12347 | 35872 ft | 497 kts | 243° |
| 2026-05-07 13:14 | 43.26243 | -27.20512 | 35876 ft | 497 kts | 243° |
| 2026-05-07 13:14 | 43.22722 | -27.28676 | 35877 ft | 496 kts | 243° |
| 2026-05-07 13:15 | 43.19203 | -27.36812 | 35895 ft | 496 kts | 243° |
| 2026-05-07 13:15 | 43.15695 | -27.44905 | 35893 ft | 496 kts | 243° |
| 2026-05-07 13:16 | 43.12164 | -27.53025 | 35890 ft | 496 kts | 243° |
| 2026-05-07 13:16 | 43.08625 | -27.61140 | 35902 ft | 496 kts | 242° |
| 2026-05-07 13:17 | 43.05085 | -27.69235 | 35907 ft | 495 kts | 242° |
| 2026-05-07 13:17 | 43.01546 | -27.77308 | 35909 ft | 495 kts | 242° |
| 2026-05-07 13:18 | 42.98001 | -27.85370 | 35909 ft | 494 kts | 242° |
| 2026-05-07 13:18 | 42.94484 | -27.93347 | 35919 ft | 494 kts | 243° |
| 2026-05-07 13:19 | 42.91514 | -28.00068 | 35922 ft | 493 kts | 242° |
| 2026-05-07 13:19 | 42.87384 | -28.09385 | 35907 ft | 493 kts | 243° |
| 2026-05-07 13:20 | 42.84407 | -28.16084 | 35921 ft | 493 kts | 242° |
| 2026-05-07 13:20 | 42.80852 | -28.24065 | 35929 ft | 493 kts | 242° |
| 2026-05-07 13:21 | 42.77312 | -28.31989 | 35936 ft | 493 kts | 242° |
| 2026-05-07 13:21 | 42.73745 | -28.39952 | 35926 ft | 493 kts | 243° |
| 2026-05-07 13:22 | 42.70170 | -28.47913 | 35929 ft | 493 kts | 243° |
| 2026-05-07 13:22 | 42.66585 | -28.55874 | 35944 ft | 494 kts | 243° |
| 2026-05-07 13:23 | 42.62993 | -28.63828 | 35944 ft | 494 kts | 243° |
| 2026-05-07 13:23 | 42.59400 | -28.71763 | 35946 ft | 493 kts | 243° |
| 2026-05-07 13:24 | 42.55804 | -28.79684 | 35955 ft | 492 kts | 243° |
| 2026-05-07 13:24 | 42.52210 | -28.87580 | 35961 ft | 492 kts | 243° |
| 2026-05-07 13:25 | 42.48615 | -28.95455 | 35950 ft | 491 kts | 243° |
| 2026-05-07 13:25 | 42.45018 | -29.03317 | 35959 ft | 490 kts | 243° |
| 2026-05-07 13:26 | 42.41425 | -29.11150 | 35970 ft | 490 kts | 243° |
| 2026-05-07 13:26 | 42.37820 | -29.18985 | 35969 ft | 490 kts | 244° |
| 2026-05-07 13:27 | 42.34216 | -29.26799 | 35973 ft | 490 kts | 243° |
| 2026-05-07 13:27 | 42.30628 | -29.34561 | 35974 ft | 490 kts | 243° |
| 2026-05-07 13:28 | 42.27009 | -29.42367 | 35981 ft | 490 kts | 243° |
| 2026-05-07 13:28 | 42.23382 | -29.50170 | 35986 ft | 491 kts | 243° |
| 2026-05-07 13:29 | 42.19745 | -29.57972 | 35992 ft | 491 kts | 243° |
| 2026-05-07 13:29 | 42.16097 | -29.65780 | 35991 ft | 491 kts | 243° |
| 2026-05-07 13:30 | 42.12450 | -29.73565 | 36007 ft | 491 kts | 244° |
| 2026-05-07 13:30 | 42.08801 | -29.81335 | 35994 ft | 490 kts | 244° |
| 2026-05-07 13:31 | 42.05157 | -29.89078 | 36005 ft | 489 kts | 243° |
| 2026-05-07 13:31 | 42.01506 | -29.96799 | 35999 ft | 488 kts | 243° |
| 2026-05-07 13:32 | 41.97225 | -30.03999 | 36009 ft | 498 kts | 232° |
| 2026-05-07 13:32 | 41.92323 | -30.10578 | 36015 ft | 498 kts | 231° |
| 2026-05-07 13:33 | 41.87409 | -30.17136 | 35991 ft | 498 kts | 232° |
| 2026-05-07 13:33 | 41.82524 | -30.23710 | 36018 ft | 497 kts | 232° |
| 2026-05-07 13:34 | 41.75244 | -30.33546 | 36034 ft | 498 kts | 232° |
| 2026-05-07 13:35 | 41.70363 | -30.40122 | 36016 ft | 497 kts | 233° |
| 2026-05-07 13:35 | 41.65483 | -30.46682 | 36027 ft | 497 kts | 232° |
| 2026-05-07 13:36 | 41.60597 | -30.53232 | 36032 ft | 497 kts | 232° |
| 2026-05-07 13:36 | 41.55706 | -30.59772 | 36012 ft | 497 kts | 233° |
| 2026-05-07 13:37 | 41.50825 | -30.66285 | 36033 ft | 496 kts | 233° |
| 2026-05-07 13:37 | 41.45942 | -30.72788 | 36041 ft | 496 kts | 233° |
| 2026-05-07 13:38 | 41.41090 | -30.79235 | 36010 ft | 495 kts | 234° |
| 2026-05-07 13:38 | 41.36212 | -30.85698 | 36049 ft | 494 kts | 234° |
| 2026-05-07 13:39 | 41.31330 | -30.92155 | 36049 ft | 493 kts | 234° |
| 2026-05-07 13:39 | 41.26461 | -30.98580 | 36006 ft | 493 kts | 234° |
| 2026-05-07 13:40 | 41.21600 | -31.04980 | 36050 ft | 491 kts | 234° |
| 2026-05-07 13:40 | 41.16772 | -31.11324 | 36055 ft | 491 kts | 234° |
| 2026-05-07 13:41 | 41.11908 | -31.17703 | 36074 ft | 491 kts | 234° |
| 2026-05-07 13:41 | 41.07050 | -31.24055 | 36061 ft | 490 kts | 234° |
| 2026-05-07 13:42 | 41.02197 | -31.30388 | 36063 ft | 489 kts | 234° |
| 2026-05-07 13:42 | 40.97345 | -31.36707 | 36064 ft | 489 kts | 234° |
| 2026-05-07 13:43 | 40.92500 | -31.43001 | 36062 ft | 486 kts | 234° |
| 2026-05-07 13:43 | 40.87682 | -31.49246 | 36066 ft | 484 kts | 234° |
| 2026-05-07 13:44 | 40.82880 | -31.55460 | 36069 ft | 482 kts | 234° |
| 2026-05-07 13:44 | 40.78126 | -31.61600 | 36079 ft | 481 kts | 234° |
| 2026-05-07 13:45 | 40.73337 | -31.67772 | 36078 ft | 481 kts | 234° |
| 2026-05-07 13:45 | 40.68546 | -31.73933 | 36085 ft | 481 kts | 234° |
| 2026-05-07 13:46 | 40.63752 | -31.80082 | 36058 ft | 480 kts | 234° |
| 2026-05-07 13:46 | 40.58959 | -31.86217 | 36081 ft | 479 kts | 234° |
| 2026-05-07 13:47 | 40.54208 | -31.92287 | 36094 ft | 479 kts | 234° |
| 2026-05-07 13:47 | 40.49421 | -31.98391 | 36055 ft | 479 kts | 235° |
| 2026-05-07 13:48 | 40.44640 | -32.04471 | 36086 ft | 477 kts | 235° |
| 2026-05-07 13:48 | 40.39862 | -32.10537 | 36093 ft | 476 kts | 235° |
| 2026-05-07 13:49 | 40.35118 | -32.16548 | 36098 ft | 476 kts | 235° |
| 2026-05-07 13:49 | 40.30359 | -32.22564 | 36091 ft | 474 kts | 235° |
| 2026-05-07 13:50 | 40.25604 | -32.28565 | 36100 ft | 474 kts | 235° |
| 2026-05-07 13:50 | 40.20859 | -32.34540 | 36106 ft | 474 kts | 235° |
| 2026-05-07 13:51 | 40.16109 | -32.40507 | 36093 ft | 471 kts | 235° |
| 2026-05-07 13:51 | 40.11410 | -32.46397 | 36105 ft | 470 kts | 235° |
| 2026-05-07 13:52 | 40.06698 | -32.52295 | 36109 ft | 468 kts | 235° |
| 2026-05-07 13:52 | 40.01990 | -32.58176 | 36118 ft | 468 kts | 235° |
| 2026-05-07 13:53 | 39.97286 | -32.64042 | 36094 ft | 467 kts | 235° |
| 2026-05-07 13:53 | 39.92590 | -32.69882 | 36110 ft | 466 kts | 235° |
| 2026-05-07 13:54 | 39.87923 | -32.75678 | 36119 ft | 466 kts | 235° |
| 2026-05-07 13:54 | 39.83222 | -32.81503 | 36124 ft | 466 kts | 235° |
| 2026-05-07 13:55 | 39.78511 | -32.87330 | 36133 ft | 467 kts | 235° |
| 2026-05-07 13:55 | 39.73797 | -32.93146 | 36124 ft | 466 kts | 235° |
| 2026-05-07 13:56 | 39.69085 | -32.98949 | 36129 ft | 467 kts | 235° |
| 2026-05-07 13:56 | 39.64396 | -33.04714 | 36131 ft | 467 kts | 235° |
| 2026-05-07 13:57 | 39.59670 | -33.10512 | 36139 ft | 467 kts | 234° |
| 2026-05-07 13:57 | 39.54945 | -33.16297 | 36087 ft | 467 kts | 235° |
| 2026-05-07 13:58 | 39.50220 | -33.22067 | 36133 ft | 466 kts | 235° |
| 2026-05-07 13:58 | 39.45502 | -33.27822 | 36145 ft | 465 kts | 235° |
| 2026-05-07 13:59 | 39.40787 | -33.33562 | 36147 ft | 465 kts | 235° |
| 2026-05-07 13:59 | 39.36067 | -33.39297 | 36151 ft | 465 kts | 235° |
| 2026-05-07 14:00 | 39.31379 | -33.44980 | 36139 ft | 464 kts | 235° |
| 2026-05-07 14:00 | 39.26680 | -33.50663 | 36158 ft | 462 kts | 235° |
| 2026-05-07 14:01 | 39.21983 | -33.56336 | 36158 ft | 461 kts | 235° |
| 2026-05-07 14:01 | 39.17312 | -33.61967 | 36163 ft | 459 kts | 235° |
| 2026-05-07 14:02 | 39.12643 | -33.67586 | 36164 ft | 458 kts | 235° |
| 2026-05-07 14:02 | 39.07989 | -33.73173 | 36175 ft | 455 kts | 235° |
| 2026-05-07 14:03 | 39.03360 | -33.78721 | 36181 ft | 454 kts | 235° |
| 2026-05-07 14:03 | 38.98738 | -33.84252 | 36182 ft | 453 kts | 235° |
| 2026-05-07 14:04 | 38.94150 | -33.89734 | 36163 ft | 453 kts | 235° |
| 2026-05-07 14:04 | 38.89535 | -33.95236 | 36179 ft | 452 kts | 235° |
| 2026-05-07 14:05 | 38.84924 | -34.00721 | 36190 ft | 452 kts | 235° |
| 2026-05-07 14:05 | 38.80307 | -34.06205 | 36192 ft | 452 kts | 235° |
| 2026-05-07 14:06 | 38.75696 | -34.11672 | 36199 ft | 452 kts | 235° |
| 2026-05-07 14:06 | 38.71078 | -34.17136 | 36199 ft | 452 kts | 235° |
| 2026-05-07 14:07 | 38.67230 | -34.21681 | 36172 ft | 452 kts | 234° |
| 2026-05-07 14:07 | 38.62607 | -34.27131 | 36200 ft | 452 kts | 234° |
| 2026-05-07 14:08 | 38.57981 | -34.32576 | 36204 ft | 452 kts | 234° |
| 2026-05-07 14:08 | 38.53352 | -34.38016 | 36208 ft | 452 kts | 234° |
| 2026-05-07 14:09 | 38.48716 | -34.43453 | 36218 ft | 452 kts | 234° |
| 2026-05-07 14:09 | 38.44082 | -34.48879 | 36173 ft | 453 kts | 234° |
| 2026-05-07 14:10 | 38.39430 | -34.54313 | 36216 ft | 453 kts | 234° |
| 2026-05-07 14:10 | 38.34802 | -34.59712 | 36222 ft | 454 kts | 234° |
| 2026-05-07 14:11 | 38.30130 | -34.65152 | 36234 ft | 455 kts | 234° |
| 2026-05-07 14:11 | 38.25458 | -34.70581 | 36234 ft | 455 kts | 234° |
| 2026-05-07 14:12 | 38.20771 | -34.76018 | 36223 ft | 456 kts | 233° |
| 2026-05-07 14:12 | 38.16080 | -34.81449 | 36231 ft | 456 kts | 233° |
| 2026-05-07 14:13 | 38.11382 | -34.86880 | 36238 ft | 456 kts | 233° |
| 2026-05-07 14:13 | 38.06678 | -34.92307 | 36239 ft | 456 kts | 233° |
| 2026-05-07 14:14 | 38.01978 | -34.97722 | 36244 ft | 456 kts | 233° |
| 2026-05-07 14:14 | 37.97263 | -35.03061 | 36211 ft | 457 kts | 231° |
| 2026-05-07 14:15 | 37.92423 | -35.08298 | 36232 ft | 457 kts | 231° |
| 2026-05-07 14:15 | 37.87573 | -35.13510 | 36254 ft | 457 kts | 231° |
| 2026-05-07 14:16 | 37.82735 | -35.18727 | 36258 ft | 456 kts | 231° |
| 2026-05-07 14:16 | 37.77905 | -35.23943 | 36259 ft | 456 kts | 231° |
| 2026-05-07 14:17 | 37.73081 | -35.29149 | 36258 ft | 456 kts | 231° |
| 2026-05-07 14:17 | 37.68279 | -35.34324 | 36263 ft | 456 kts | 231° |
| 2026-05-07 14:18 | 37.63451 | -35.39516 | 36263 ft | 456 kts | 231° |
| 2026-05-07 14:18 | 37.58618 | -35.44703 | 36267 ft | 456 kts | 231° |
| 2026-05-07 14:19 | 37.53779 | -35.49888 | 36277 ft | 457 kts | 231° |
| 2026-05-07 14:19 | 37.48934 | -35.55069 | 36268 ft | 456 kts | 231° |
| 2026-05-07 14:20 | 37.44090 | -35.60240 | 36278 ft | 457 kts | 231° |
| 2026-05-07 14:20 | 37.39243 | -35.65407 | 36281 ft | 457 kts | 231° |
| 2026-05-07 14:21 | 37.34390 | -35.70569 | 36267 ft | 457 kts | 230° |
| 2026-05-07 14:21 | 37.29533 | -35.75727 | 36247 ft | 457 kts | 230° |
| 2026-05-07 14:22 | 37.24672 | -35.80880 | 36274 ft | 457 kts | 230° |
| 2026-05-07 14:22 | 37.19815 | -35.86020 | 36299 ft | 457 kts | 230° |
| 2026-05-07 14:23 | 37.14980 | -35.91128 | 36294 ft | 457 kts | 230° |
| 2026-05-07 14:23 | 37.10078 | -35.96298 | 36292 ft | 458 kts | 230° |
| 2026-05-07 14:24 | 37.05234 | -36.01398 | 36273 ft | 458 kts | 230° |
| 2026-05-07 14:24 | 37.00356 | -36.06523 | 36291 ft | 457 kts | 229° |
| 2026-05-07 14:25 | 36.95482 | -36.11637 | 36296 ft | 457 kts | 229° |
| 2026-05-07 14:25 | 36.90593 | -36.16757 | 36300 ft | 458 kts | 229° |
| 2026-05-07 14:26 | 36.85709 | -36.21864 | 36299 ft | 458 kts | 229° |
| 2026-05-07 14:26 | 36.80813 | -36.26975 | 36269 ft | 459 kts | 229° |
| 2026-05-07 14:27 | 36.75916 | -36.32076 | 36294 ft | 458 kts | 229° |
| 2026-05-07 14:27 | 36.71046 | -36.37142 | 36301 ft | 459 kts | 229° |
| 2026-05-07 14:28 | 36.66140 | -36.42235 | 36299 ft | 459 kts | 229° |
| 2026-05-07 14:28 | 36.61225 | -36.47330 | 36303 ft | 459 kts | 229° |
| 2026-05-07 14:29 | 36.56316 | -36.52410 | 36305 ft | 459 kts | 229° |
| 2026-05-07 14:29 | 36.51397 | -36.57490 | 36303 ft | 459 kts | 228° |
| 2026-05-07 14:30 | 36.46484 | -36.62556 | 36308 ft | 459 kts | 228° |
| 2026-05-07 14:30 | 36.41598 | -36.67587 | 36291 ft | 459 kts | 228° |
| 2026-05-07 14:31 | 36.36686 | -36.72635 | 36309 ft | 458 kts | 228° |
| 2026-05-07 14:31 | 36.31772 | -36.77677 | 36298 ft | 457 kts | 227° |
| 2026-05-07 14:32 | 36.26867 | -36.82700 | 36306 ft | 457 kts | 227° |
| 2026-05-07 14:32 | 36.21955 | -36.87723 | 36310 ft | 457 kts | 227° |
| 2026-05-07 14:33 | 36.17081 | -36.92699 | 36310 ft | 457 kts | 227° |
| 2026-05-07 14:33 | 36.12165 | -36.97710 | 36312 ft | 457 kts | 227° |
| 2026-05-07 14:34 | 36.07258 | -37.02702 | 36309 ft | 456 kts | 227° |
| 2026-05-07 14:34 | 36.02346 | -37.07691 | 36314 ft | 457 kts | 227° |
| 2026-05-07 14:35 | 35.97464 | -37.12642 | 36316 ft | 457 kts | 227° |
| 2026-05-07 14:35 | 35.92550 | -37.17617 | 36318 ft | 457 kts | 227° |
| 2026-05-07 14:36 | 35.87631 | -37.22589 | 36320 ft | 457 kts | 227° |
| 2026-05-07 14:36 | 35.82708 | -37.27556 | 36311 ft | 457 kts | 226° |
| 2026-05-07 14:37 | 35.77788 | -37.32511 | 36309 ft | 456 kts | 226° |
| 2026-05-07 14:37 | 35.70418 | -37.39919 | 36318 ft | 455 kts | 226° |
| 2026-05-07 14:38 | 35.65514 | -37.44840 | 36318 ft | 455 kts | 226° |
| 2026-05-07 14:38 | 35.60604 | -37.49757 | 36303 ft | 454 kts | 226° |
| 2026-05-07 14:39 | 35.55701 | -37.54660 | 36315 ft | 454 kts | 226° |
| 2026-05-07 14:39 | 35.50832 | -37.59520 | 36318 ft | 454 kts | 226° |
| 2026-05-07 14:40 | 35.45925 | -37.64412 | 36316 ft | 454 kts | 226° |
| 2026-05-07 14:40 | 35.41028 | -37.69285 | 36337 ft | 454 kts | 226° |
| 2026-05-07 14:41 | 35.36121 | -37.74160 | 36324 ft | 453 kts | 226° |
| 2026-05-07 14:41 | 35.31219 | -37.79023 | 36317 ft | 454 kts | 226° |
| 2026-05-07 14:42 | 35.26311 | -37.83882 | 36323 ft | 454 kts | 226° |
| 2026-05-07 14:42 | 35.21397 | -37.88741 | 36324 ft | 454 kts | 226° |
| 2026-05-07 14:43 | 35.16486 | -37.93589 | 36303 ft | 454 kts | 226° |
| 2026-05-07 14:43 | 35.11599 | -37.98405 | 36314 ft | 453 kts | 226° |
| 2026-05-07 14:44 | 35.06693 | -38.03232 | 36321 ft | 453 kts | 226° |
| 2026-05-07 14:44 | 35.01783 | -38.08055 | 36324 ft | 452 kts | 226° |
| 2026-05-07 14:45 | 34.96874 | -38.12871 | 36323 ft | 452 kts | 225° |
| 2026-05-07 14:45 | 34.91971 | -38.17672 | 36324 ft | 452 kts | 225° |
| 2026-05-07 14:46 | 34.87100 | -38.22435 | 36316 ft | 452 kts | 225° |
| 2026-05-07 14:46 | 34.82201 | -38.27216 | 36314 ft | 450 kts | 225° |
| 2026-05-07 14:47 | 34.77317 | -38.31976 | 36317 ft | 449 kts | 226° |
| 2026-05-07 14:47 | 34.72438 | -38.36725 | 36321 ft | 449 kts | 225° |
| 2026-05-07 14:48 | 34.67558 | -38.41467 | 36323 ft | 449 kts | 225° |
| 2026-05-07 14:48 | 34.62685 | -38.46195 | 36315 ft | 448 kts | 225° |
| 2026-05-07 14:49 | 34.57817 | -38.50909 | 36323 ft | 447 kts | 225° |
| 2026-05-07 14:49 | 34.52947 | -38.55620 | 36310 ft | 447 kts | 225° |
| 2026-05-07 14:50 | 34.48086 | -38.60314 | 36322 ft | 446 kts | 225° |
| 2026-05-07 14:50 | 34.43228 | -38.64998 | 36319 ft | 446 kts | 225° |
| 2026-05-07 14:51 | 34.38371 | -38.69675 | 36328 ft | 446 kts | 225° |
| 2026-05-07 14:51 | 34.33542 | -38.74316 | 36331 ft | 445 kts | 225° |
| 2026-05-07 14:52 | 34.28681 | -38.78982 | 36313 ft | 445 kts | 225° |
| 2026-05-07 14:52 | 34.23831 | -38.83629 | 36323 ft | 445 kts | 225° |
| 2026-05-07 14:53 | 34.19800 | -38.87487 | 36317 ft | 444 kts | 225° |
| 2026-05-07 14:53 | 34.14952 | -38.92120 | 36320 ft | 444 kts | 225° |
| 2026-05-07 14:54 | 34.10108 | -38.96743 | 36329 ft | 446 kts | 225° |
| 2026-05-07 14:54 | 34.07665 | -38.99074 | 36526 ft | 447 kts | 225° |
| 2026-05-07 14:54 | 34.05228 | -39.01394 | 36970 ft | 444 kts | 225° |
| 2026-05-07 14:55 | 34.02816 | -39.03685 | 37479 ft | 439 kts | 225° |
| 2026-05-07 14:55 | 34.00427 | -39.05951 | 37992 ft | 434 kts | 226° |
| 2026-05-07 14:55 | 33.98061 | -39.08197 | 38351 ft | 433 kts | 226° |
| 2026-05-07 14:55 | 33.95687 | -39.10456 | 38315 ft | 436 kts | 226° |
| 2026-05-07 14:56 | 33.90930 | -39.14973 | 38306 ft | 432 kts | 226° |
| 2026-05-07 14:56 | 33.86230 | -39.19421 | 38312 ft | 428 kts | 226° |
| 2026-05-07 14:57 | 33.81555 | -39.23845 | 38316 ft | 427 kts | 226° |
| 2026-05-07 14:57 | 33.76909 | -39.28236 | 38312 ft | 427 kts | 226° |
| 2026-05-07 14:58 | 33.72230 | -39.32651 | 38310 ft | 428 kts | 226° |
| 2026-05-07 14:58 | 33.67531 | -39.37078 | 38321 ft | 429 kts | 226° |
| 2026-05-07 14:59 | 33.62830 | -39.41499 | 38322 ft | 430 kts | 226° |
| 2026-05-07 14:59 | 33.58111 | -39.45931 | 38321 ft | 430 kts | 226° |
| 2026-05-07 15:00 | 33.53391 | -39.50357 | 38318 ft | 431 kts | 226° |
| 2026-05-07 15:00 | 33.48669 | -39.54779 | 38319 ft | 431 kts | 226° |
| 2026-05-07 15:01 | 33.43940 | -39.59201 | 38304 ft | 431 kts | 225° |
| 2026-05-07 15:01 | 33.39211 | -39.63616 | 38310 ft | 430 kts | 225° |
| 2026-05-07 15:02 | 33.34493 | -39.68015 | 38306 ft | 430 kts | 225° |
| 2026-05-07 15:02 | 33.29808 | -39.72377 | 38306 ft | 429 kts | 225° |
| 2026-05-07 15:03 | 33.25096 | -39.76760 | 38294 ft | 428 kts | 225° |
| 2026-05-07 15:03 | 33.20388 | -39.81132 | 38299 ft | 428 kts | 225° |
| 2026-05-07 15:04 | 33.15688 | -39.85491 | 38308 ft | 427 kts | 225° |
| 2026-05-07 15:04 | 33.10997 | -39.89835 | 38307 ft | 427 kts | 225° |
| 2026-05-07 15:05 | 33.06303 | -39.94177 | 38305 ft | 426 kts | 225° |
| 2026-05-07 15:05 | 33.01644 | -39.98481 | 38305 ft | 426 kts | 225° |
| 2026-05-07 15:06 | 32.97137 | -40.03020 | 38294 ft | 422 kts | 229° |
| 2026-05-07 15:06 | 32.92785 | -40.07713 | 38277 ft | 422 kts | 229° |
| 2026-05-07 15:07 | 32.88423 | -40.12408 | 38300 ft | 423 kts | 229° |
| 2026-05-07 15:07 | 32.84047 | -40.17101 | 38298 ft | 424 kts | 229° |
| 2026-05-07 15:08 | 32.79679 | -40.21774 | 38294 ft | 425 kts | 229° |
| 2026-05-07 15:08 | 32.75269 | -40.26483 | 38278 ft | 426 kts | 228° |
| 2026-05-07 15:09 | 32.70857 | -40.31186 | 38293 ft | 426 kts | 228° |
| 2026-05-07 15:09 | 32.66442 | -40.35885 | 38294 ft | 426 kts | 228° |
| 2026-05-07 15:10 | 32.62026 | -40.40581 | 38291 ft | 426 kts | 228° |
| 2026-05-07 15:10 | 32.57609 | -40.45271 | 38272 ft | 426 kts | 228° |
| 2026-05-07 15:11 | 32.53193 | -40.49953 | 38278 ft | 426 kts | 228° |
| 2026-05-07 15:11 | 32.48772 | -40.54635 | 38277 ft | 426 kts | 228° |
| 2026-05-07 15:12 | 32.44376 | -40.59283 | 38285 ft | 426 kts | 228° |
| 2026-05-07 15:12 | 32.39951 | -40.63956 | 38294 ft | 427 kts | 228° |
| 2026-05-07 15:13 | 32.35519 | -40.68629 | 38287 ft | 427 kts | 228° |
| 2026-05-07 15:13 | 32.31081 | -40.73304 | 38273 ft | 426 kts | 227° |
| 2026-05-07 15:14 | 32.26648 | -40.77965 | 38280 ft | 426 kts | 227° |
| 2026-05-07 15:14 | 32.22218 | -40.82617 | 38268 ft | 426 kts | 227° |
| 2026-05-07 15:15 | 32.17787 | -40.87265 | 38280 ft | 426 kts | 227° |
| 2026-05-07 15:15 | 32.13375 | -40.91886 | 38285 ft | 426 kts | 227° |
| 2026-05-07 15:16 | 32.08939 | -40.96526 | 38278 ft | 426 kts | 227° |
| 2026-05-07 15:16 | 32.04498 | -41.01166 | 38284 ft | 426 kts | 227° |
| 2026-05-07 15:17 | 32.00053 | -41.05803 | 38273 ft | 427 kts | 227° |
| 2026-05-07 15:17 | 31.95598 | -41.10444 | 38281 ft | 427 kts | 227° |
| 2026-05-07 15:18 | 31.91150 | -41.15071 | 38275 ft | 427 kts | 227° |
| 2026-05-07 15:18 | 31.86713 | -41.19681 | 38262 ft | 427 kts | 227° |
| 2026-05-07 15:19 | 31.82263 | -41.24298 | 38273 ft | 427 kts | 227° |
| 2026-05-07 15:19 | 31.77803 | -41.28920 | 38275 ft | 427 kts | 227° |
| 2026-05-07 15:20 | 31.73334 | -41.33544 | 38273 ft | 428 kts | 227° |
| 2026-05-07 15:20 | 31.68868 | -41.38159 | 38266 ft | 428 kts | 227° |
| 2026-05-07 15:21 | 31.64388 | -41.42782 | 38268 ft | 428 kts | 227° |
| 2026-05-07 15:21 | 31.59917 | -41.47391 | 38268 ft | 428 kts | 227° |
| 2026-05-07 15:22 | 31.55449 | -41.51989 | 38266 ft | 428 kts | 227° |
| 2026-05-07 15:22 | 31.51007 | -41.56556 | 38257 ft | 427 kts | 227° |
| 2026-05-07 15:23 | 31.46543 | -41.61138 | 38267 ft | 426 kts | 227° |
| 2026-05-07 15:23 | 31.42080 | -41.65712 | 38266 ft | 426 kts | 227° |
| 2026-05-07 15:24 | 31.37620 | -41.70279 | 38266 ft | 426 kts | 227° |
| 2026-05-07 15:24 | 31.33162 | -41.74837 | 38264 ft | 425 kts | 227° |
| 2026-05-07 15:25 | 31.28708 | -41.79387 | 38265 ft | 425 kts | 227° |
| 2026-05-07 15:25 | 31.24254 | -41.83929 | 38266 ft | 425 kts | 227° |
| 2026-05-07 15:26 | 31.19794 | -41.88472 | 38266 ft | 425 kts | 227° |
| 2026-05-07 15:26 | 31.15345 | -41.92997 | 38262 ft | 424 kts | 226° |
| 2026-05-07 15:27 | 31.10895 | -41.97517 | 38264 ft | 424 kts | 226° |
| 2026-05-07 15:27 | 31.06475 | -42.02003 | 38263 ft | 424 kts | 226° |
| 2026-05-07 15:28 | 31.01999 | -42.06538 | 38262 ft | 423 kts | 226° |
| 2026-05-07 15:28 | 30.97578 | -42.11012 | 38256 ft | 423 kts | 226° |
| 2026-05-07 15:29 | 30.93131 | -42.15506 | 38259 ft | 423 kts | 226° |
| 2026-05-07 15:29 | 30.88682 | -42.19998 | 38257 ft | 423 kts | 226° |
| 2026-05-07 15:30 | 30.84230 | -42.24486 | 38242 ft | 423 kts | 226° |
| 2026-05-07 15:30 | 30.79787 | -42.28959 | 38258 ft | 422 kts | 226° |
| 2026-05-07 15:31 | 30.75329 | -42.33442 | 38256 ft | 423 kts | 226° |
| 2026-05-07 15:31 | 30.70874 | -42.37915 | 38256 ft | 423 kts | 226° |
| 2026-05-07 15:32 | 30.66419 | -42.42384 | 38251 ft | 423 kts | 225° |
| 2026-05-07 15:32 | 30.61965 | -42.46845 | 38256 ft | 423 kts | 225° |
| 2026-05-07 15:33 | 30.57537 | -42.51276 | 38255 ft | 423 kts | 225° |
| 2026-05-07 15:33 | 30.53071 | -42.55738 | 38251 ft | 423 kts | 225° |
| 2026-05-07 15:34 | 30.48608 | -42.60192 | 38241 ft | 423 kts | 225° |
| 2026-05-07 15:34 | 30.44141 | -42.64645 | 38240 ft | 423 kts | 225° |
| 2026-05-07 15:35 | 30.39701 | -42.69065 | 38249 ft | 423 kts | 225° |
| 2026-05-07 15:35 | 30.35235 | -42.73505 | 38254 ft | 423 kts | 225° |
| 2026-05-07 15:36 | 30.30756 | -42.77952 | 38246 ft | 424 kts | 225° |
| 2026-05-07 15:36 | 30.26280 | -42.82391 | 38242 ft | 424 kts | 225° |
| 2026-05-07 15:37 | 30.21796 | -42.86833 | 38240 ft | 424 kts | 225° |
| 2026-05-07 15:37 | 30.17317 | -42.91263 | 38238 ft | 424 kts | 225° |
| 2026-05-07 15:38 | 30.13593 | -42.94943 | 38258 ft | 423 kts | 225° |
| 2026-05-07 15:38 | 30.09116 | -42.99362 | 38240 ft | 423 kts | 225° |
| 2026-05-07 15:39 | 30.03911 | -43.04492 | 38232 ft | 423 kts | 224° |
| 2026-05-07 15:39 | 29.99436 | -43.08897 | 38233 ft | 423 kts | 224° |
| 2026-05-07 15:40 | 29.95714 | -43.12558 | 38251 ft | 422 kts | 224° |
| 2026-05-07 15:40 | 29.91241 | -43.16951 | 38253 ft | 422 kts | 224° |
| 2026-05-07 15:41 | 29.86766 | -43.21341 | 38250 ft | 422 kts | 224° |
| 2026-05-07 15:41 | 29.82293 | -43.25723 | 38231 ft | 422 kts | 224° |
| 2026-05-07 15:42 | 29.77815 | -43.30106 | 38240 ft | 422 kts | 224° |
| 2026-05-07 15:42 | 29.73332 | -43.34488 | 38240 ft | 423 kts | 224° |
| 2026-05-07 15:43 | 29.68849 | -43.38864 | 38238 ft | 423 kts | 224° |
| 2026-05-07 15:43 | 29.64374 | -43.43227 | 38229 ft | 424 kts | 224° |
| 2026-05-07 15:44 | 29.59871 | -43.47612 | 38234 ft | 424 kts | 224° |
| 2026-05-07 15:44 | 29.55365 | -43.51995 | 38231 ft | 424 kts | 224° |
| 2026-05-07 15:45 | 29.50860 | -43.56372 | 38234 ft | 424 kts | 224° |
| 2026-05-07 15:45 | 29.46355 | -43.60743 | 38233 ft | 424 kts | 224° |
| 2026-05-07 15:46 | 29.39628 | -43.67261 | 38229 ft | 423 kts | 224° |
| 2026-05-07 15:47 | 29.35098 | -43.71643 | 38230 ft | 423 kts | 224° |
| 2026-05-07 15:47 | 29.30624 | -43.75966 | 38226 ft | 423 kts | 223° |
| 2026-05-07 15:48 | 29.26116 | -43.80317 | 38229 ft | 423 kts | 223° |
| 2026-05-07 15:48 | 29.21612 | -43.84659 | 38226 ft | 423 kts | 223° |
| 2026-05-07 15:49 | 29.17107 | -43.88996 | 38227 ft | 423 kts | 223° |
| 2026-05-07 15:49 | 29.12599 | -43.93331 | 38225 ft | 423 kts | 223° |
| 2026-05-07 15:50 | 29.08087 | -43.97665 | 38214 ft | 423 kts | 223° |
| 2026-05-07 15:50 | 29.03576 | -44.01993 | 38224 ft | 423 kts | 223° |
| 2026-05-07 15:51 | 28.99060 | -44.06321 | 38224 ft | 424 kts | 223° |
| 2026-05-07 15:51 | 28.94533 | -44.10654 | 38220 ft | 424 kts | 223° |
| 2026-05-07 15:52 | 28.90013 | -44.14975 | 38220 ft | 424 kts | 223° |
| 2026-05-07 15:52 | 28.85480 | -44.19303 | 38221 ft | 424 kts | 223° |
| 2026-05-07 15:53 | 28.80952 | -44.23621 | 38214 ft | 424 kts | 223° |
| 2026-05-07 15:53 | 28.76424 | -44.27935 | 38217 ft | 424 kts | 223° |
| 2026-05-07 15:54 | 28.71919 | -44.32222 | 38215 ft | 424 kts | 223° |
| 2026-05-07 15:54 | 28.67385 | -44.36531 | 38213 ft | 424 kts | 223° |
| 2026-05-07 15:55 | 28.62850 | -44.40837 | 38219 ft | 424 kts | 223° |
| 2026-05-07 15:55 | 28.58309 | -44.45142 | 38215 ft | 424 kts | 222° |
| 2026-05-07 15:56 | 28.53766 | -44.49445 | 38214 ft | 424 kts | 222° |
| 2026-05-07 15:56 | 28.49232 | -44.53734 | 38213 ft | 424 kts | 222° |
| 2026-05-07 15:57 | 28.44691 | -44.58025 | 38209 ft | 424 kts | 222° |
| 2026-05-07 15:57 | 28.40152 | -44.62310 | 38199 ft | 424 kts | 222° |
| 2026-05-07 15:58 | 28.35641 | -44.66562 | 38203 ft | 424 kts | 222° |
| 2026-05-07 15:58 | 28.31099 | -44.70839 | 38210 ft | 424 kts | 222° |
| 2026-05-07 15:59 | 28.26555 | -44.75113 | 38210 ft | 424 kts | 222° |
| 2026-05-07 15:59 | 28.22010 | -44.79384 | 38203 ft | 424 kts | 222° |
| 2026-05-07 16:00 | 28.17454 | -44.83660 | 38212 ft | 424 kts | 222° |
| 2026-05-07 16:00 | 28.12930 | -44.87901 | 38206 ft | 424 kts | 222° |
| 2026-05-07 16:01 | 28.08377 | -44.92166 | 38206 ft | 424 kts | 222° |
| 2026-05-07 16:01 | 28.03824 | -44.96426 | 38198 ft | 424 kts | 222° |
| 2026-05-07 16:02 | 27.99392 | -45.00833 | 38222 ft | 423 kts | 227° |
| 2026-05-07 16:02 | 27.95536 | -45.05853 | 38204 ft | 422 kts | 231° |
| 2026-05-07 16:03 | 27.91728 | -45.10914 | 38201 ft | 423 kts | 231° |
| 2026-05-07 16:03 | 27.87925 | -45.15941 | 38185 ft | 423 kts | 230° |
| 2026-05-07 16:04 | 27.84091 | -45.20995 | 38195 ft | 424 kts | 230° |
| 2026-05-07 16:04 | 27.80253 | -45.26047 | 38194 ft | 424 kts | 230° |
| 2026-05-07 16:05 | 27.76407 | -45.31103 | 38195 ft | 424 kts | 230° |
| 2026-05-07 16:05 | 27.72565 | -45.36148 | 38204 ft | 424 kts | 230° |
| 2026-05-07 16:06 | 27.68720 | -45.41192 | 38194 ft | 424 kts | 230° |
| 2026-05-07 16:06 | 27.64871 | -45.46235 | 38207 ft | 424 kts | 230° |
| 2026-05-07 16:07 | 27.61022 | -45.51272 | 38176 ft | 423 kts | 230° |
| 2026-05-07 16:07 | 27.57172 | -45.56304 | 38198 ft | 423 kts | 230° |
| 2026-05-07 16:08 | 27.53339 | -45.61308 | 38181 ft | 424 kts | 230° |
| 2026-05-07 16:08 | 27.49488 | -45.66330 | 38188 ft | 423 kts | 230° |
| 2026-05-07 16:09 | 27.45635 | -45.71349 | 38203 ft | 423 kts | 230° |
| 2026-05-07 16:09 | 27.41784 | -45.76359 | 38203 ft | 423 kts | 230° |
| 2026-05-07 16:10 | 27.37925 | -45.81374 | 38197 ft | 423 kts | 230° |
| 2026-05-07 16:10 | 27.34076 | -45.86370 | 38184 ft | 422 kts | 230° |
| 2026-05-07 16:11 | 27.30248 | -45.91333 | 38191 ft | 422 kts | 230° |
| 2026-05-07 16:11 | 27.26373 | -45.96351 | 38170 ft | 422 kts | 230° |
| 2026-05-07 16:12 | 27.22545 | -46.01303 | 38179 ft | 422 kts | 230° |
| 2026-05-07 16:12 | 27.18691 | -46.06282 | 38168 ft | 422 kts | 230° |
| 2026-05-07 16:13 | 27.14833 | -46.11261 | 38191 ft | 422 kts | 230° |
| 2026-05-07 16:13 | 27.10973 | -46.16237 | 38192 ft | 422 kts | 230° |
| 2026-05-07 16:14 | 27.07109 | -46.21212 | 38178 ft | 423 kts | 230° |
| 2026-05-07 16:14 | 27.03242 | -46.26185 | 38157 ft | 423 kts | 229° |
| 2026-05-07 16:15 | 26.99373 | -46.31156 | 38182 ft | 423 kts | 229° |
| 2026-05-07 16:15 | 26.95499 | -46.36127 | 38178 ft | 423 kts | 229° |
| 2026-05-07 16:16 | 26.91641 | -46.41073 | 38172 ft | 423 kts | 229° |
| 2026-05-07 16:16 | 26.87756 | -46.46046 | 38172 ft | 423 kts | 229° |
| 2026-05-07 16:17 | 26.83878 | -46.51006 | 38174 ft | 423 kts | 229° |
| 2026-05-07 16:17 | 26.79995 | -46.55965 | 38171 ft | 424 kts | 229° |
| 2026-05-07 16:18 | 26.76107 | -46.60927 | 38160 ft | 424 kts | 229° |
| 2026-05-07 16:18 | 26.72220 | -46.65881 | 38170 ft | 423 kts | 229° |
| 2026-05-07 16:19 | 26.68356 | -46.70799 | 38172 ft | 423 kts | 229° |
| 2026-05-07 16:19 | 26.64465 | -46.75747 | 38172 ft | 423 kts | 229° |
| 2026-05-07 16:20 | 26.60574 | -46.80690 | 38168 ft | 424 kts | 229° |
| 2026-05-07 16:20 | 26.56679 | -46.85633 | 38161 ft | 424 kts | 229° |
| 2026-05-07 16:21 | 26.52778 | -46.90576 | 38168 ft | 424 kts | 229° |
| 2026-05-07 16:21 | 26.48866 | -46.95529 | 38165 ft | 425 kts | 229° |
| 2026-05-07 16:22 | 26.44980 | -47.00444 | 38170 ft | 425 kts | 229° |
| 2026-05-07 16:22 | 26.41067 | -47.05386 | 38161 ft | 425 kts | 229° |
| 2026-05-07 16:23 | 26.37782 | -47.09531 | 38165 ft | 425 kts | 229° |
| 2026-05-07 16:23 | 26.33221 | -47.15280 | 38163 ft | 426 kts | 229° |
| 2026-05-07 16:24 | 26.29927 | -47.19427 | 38175 ft | 426 kts | 229° |
| 2026-05-07 16:24 | 26.26000 | -47.24367 | 38158 ft | 426 kts | 229° |
| 2026-05-07 16:25 | 26.22089 | -47.29280 | 38164 ft | 426 kts | 229° |
| 2026-05-07 16:25 | 26.18153 | -47.34220 | 38157 ft | 426 kts | 229° |
| 2026-05-07 16:26 | 26.14218 | -47.39153 | 38175 ft | 426 kts | 229° |
| 2026-05-07 16:26 | 26.10284 | -47.44080 | 38158 ft | 426 kts | 229° |
| 2026-05-07 16:27 | 26.06344 | -47.49009 | 38163 ft | 426 kts | 229° |
| 2026-05-07 16:27 | 26.02405 | -47.53930 | 38160 ft | 426 kts | 229° |
| 2026-05-07 16:28 | 25.98466 | -47.58847 | 38155 ft | 426 kts | 229° |
| 2026-05-07 16:28 | 25.94524 | -47.63761 | 38158 ft | 426 kts | 229° |
| 2026-05-07 16:29 | 25.90607 | -47.68640 | 38158 ft | 425 kts | 229° |
| 2026-05-07 16:29 | 25.86667 | -47.73542 | 38154 ft | 425 kts | 229° |
| 2026-05-07 16:30 | 25.82732 | -47.78432 | 38152 ft | 424 kts | 229° |
| 2026-05-07 16:30 | 25.78803 | -47.83309 | 38160 ft | 424 kts | 229° |
| 2026-05-07 16:31 | 25.74860 | -47.88199 | 38155 ft | 424 kts | 229° |
| 2026-05-07 16:31 | 25.70923 | -47.93076 | 38152 ft | 424 kts | 229° |
| 2026-05-07 16:32 | 25.66984 | -47.97949 | 38150 ft | 424 kts | 229° |
| 2026-05-07 16:32 | 25.63041 | -48.02823 | 38151 ft | 425 kts | 229° |
| 2026-05-07 16:33 | 25.59096 | -48.07695 | 38152 ft | 425 kts | 229° |
| 2026-05-07 16:33 | 25.55141 | -48.12572 | 38149 ft | 425 kts | 229° |
| 2026-05-07 16:34 | 25.51186 | -48.17446 | 38148 ft | 425 kts | 229° |
| 2026-05-07 16:34 | 25.47252 | -48.22287 | 38139 ft | 426 kts | 229° |
| 2026-05-07 16:35 | 25.43291 | -48.27158 | 38150 ft | 426 kts | 228° |
| 2026-05-07 16:35 | 25.39326 | -48.32027 | 38143 ft | 426 kts | 228° |
| 2026-05-07 16:36 | 25.35360 | -48.36893 | 38139 ft | 426 kts | 228° |
| 2026-05-07 16:36 | 25.31394 | -48.41753 | 38136 ft | 425 kts | 228° |
| 2026-05-07 16:37 | 25.27426 | -48.46612 | 38147 ft | 426 kts | 228° |
| 2026-05-07 16:37 | 25.23455 | -48.51468 | 38139 ft | 426 kts | 228° |
| 2026-05-07 16:38 | 25.19488 | -48.56315 | 38138 ft | 425 kts | 228° |
| 2026-05-07 16:38 | 25.15516 | -48.61162 | 38129 ft | 425 kts | 228° |
| 2026-05-07 16:39 | 25.11545 | -48.66004 | 38154 ft | 425 kts | 228° |
| 2026-05-07 16:39 | 25.07596 | -48.70814 | 38137 ft | 426 kts | 228° |
| 2026-05-07 16:40 | 25.03616 | -48.75656 | 38134 ft | 426 kts | 228° |
| 2026-05-07 16:40 | 24.99638 | -48.80490 | 38122 ft | 426 kts | 228° |
| 2026-05-07 16:41 | 24.95658 | -48.85322 | 38138 ft | 426 kts | 228° |
| 2026-05-07 16:41 | 24.91672 | -48.90157 | 38138 ft | 426 kts | 228° |
| 2026-05-07 16:42 | 24.87682 | -48.94991 | 38130 ft | 426 kts | 228° |
| 2026-05-07 16:42 | 24.83689 | -48.99824 | 38114 ft | 427 kts | 228° |
| 2026-05-07 16:43 | 24.79692 | -49.04656 | 38126 ft | 427 kts | 228° |
| 2026-05-07 16:43 | 24.75690 | -49.09491 | 38174 ft | 427 kts | 228° |
| 2026-05-07 16:44 | 24.71686 | -49.14321 | 38139 ft | 426 kts | 228° |
| 2026-05-07 16:44 | 24.67731 | -49.19088 | 38123 ft | 423 kts | 228° |
| 2026-05-07 16:45 | 24.63773 | -49.23855 | 38123 ft | 421 kts | 228° |
| 2026-05-07 16:45 | 24.59826 | -49.28602 | 38127 ft | 420 kts | 228° |
| 2026-05-07 16:46 | 24.55879 | -49.33345 | 38135 ft | 420 kts | 228° |
| 2026-05-07 16:46 | 24.51937 | -49.38078 | 38125 ft | 420 kts | 228° |
| 2026-05-07 16:47 | 24.47987 | -49.42816 | 38106 ft | 420 kts | 228° |
| 2026-05-07 16:47 | 24.44033 | -49.47553 | 38126 ft | 421 kts | 228° |
| 2026-05-07 16:48 | 24.40070 | -49.52296 | 38129 ft | 422 kts | 228° |
| 2026-05-07 16:48 | 24.36122 | -49.57017 | 38131 ft | 423 kts | 228° |
| 2026-05-07 16:49 | 24.32118 | -49.61800 | 38125 ft | 423 kts | 228° |
| 2026-05-07 16:49 | 24.28162 | -49.66520 | 38125 ft | 423 kts | 227° |
| 2026-05-07 16:50 | 24.24184 | -49.71263 | 38122 ft | 423 kts | 227° |
| 2026-05-07 16:50 | 24.20206 | -49.76001 | 38138 ft | 422 kts | 227° |
| 2026-05-07 16:51 | 24.16227 | -49.80735 | 38124 ft | 421 kts | 227° |
| 2026-05-07 16:51 | 24.12257 | -49.85454 | 38117 ft | 420 kts | 227° |
| 2026-05-07 16:52 | 24.08292 | -49.90164 | 38122 ft | 420 kts | 227° |
| 2026-05-07 16:52 | 24.04349 | -49.94843 | 38120 ft | 420 kts | 227° |
| 2026-05-07 16:53 | 24.00387 | -49.99554 | 38125 ft | 420 kts | 229° |
| 2026-05-07 16:53 | 23.96775 | -50.04579 | 38106 ft | 420 kts | 232° |
| 2026-05-07 16:54 | 23.93245 | -50.09673 | 38120 ft | 420 kts | 232° |
| 2026-05-07 16:54 | 23.89702 | -50.14769 | 38121 ft | 421 kts | 232° |
| 2026-05-07 16:55 | 23.86150 | -50.19862 | 38137 ft | 421 kts | 232° |
| 2026-05-07 16:55 | 23.82593 | -50.24955 | 38124 ft | 421 kts | 232° |
| 2026-05-07 16:56 | 23.79048 | -50.30024 | 38093 ft | 421 kts | 232° |
| 2026-05-07 16:56 | 23.73708 | -50.37649 | 38118 ft | 421 kts | 232° |
| 2026-05-07 16:57 | 23.70145 | -50.42731 | 38141 ft | 422 kts | 232° |
| 2026-05-07 16:57 | 23.66579 | -50.47813 | 38121 ft | 422 kts | 232° |
| 2026-05-07 16:58 | 23.63012 | -50.52892 | 38116 ft | 421 kts | 232° |
| 2026-05-07 16:58 | 23.59446 | -50.57963 | 38113 ft | 421 kts | 232° |
| 2026-05-07 16:59 | 23.55882 | -50.63025 | 38116 ft | 421 kts | 232° |
| 2026-05-07 16:59 | 23.52311 | -50.68093 | 38122 ft | 421 kts | 232° |
| 2026-05-07 17:00 | 23.48738 | -50.73156 | 38116 ft | 421 kts | 232° |
| 2026-05-07 17:00 | 23.45168 | -50.78215 | 38099 ft | 421 kts | 232° |
| 2026-05-07 17:01 | 23.41598 | -50.83267 | 38113 ft | 421 kts | 232° |
| 2026-05-07 17:01 | 23.38024 | -50.88319 | 38126 ft | 421 kts | 231° |
| 2026-05-07 17:02 | 23.34447 | -50.93371 | 38110 ft | 421 kts | 231° |
| 2026-05-07 17:02 | 23.30867 | -50.98420 | 38109 ft | 421 kts | 231° |
| 2026-05-07 17:03 | 23.27284 | -51.03470 | 38094 ft | 422 kts | 231° |
| 2026-05-07 17:03 | 23.23719 | -51.08490 | 38109 ft | 421 kts | 231° |
| 2026-05-07 17:04 | 23.20130 | -51.13538 | 38110 ft | 422 kts | 231° |
| 2026-05-07 17:04 | 23.16536 | -51.18588 | 38107 ft | 422 kts | 231° |
| 2026-05-07 17:05 | 23.12955 | -51.23614 | 38109 ft | 422 kts | 231° |
| 2026-05-07 17:05 | 23.09356 | -51.28662 | 38084 ft | 423 kts | 231° |
| 2026-05-07 17:06 | 23.05748 | -51.33718 | 38117 ft | 423 kts | 231° |
| 2026-05-07 17:06 | 23.02140 | -51.38768 | 38107 ft | 424 kts | 231° |
| 2026-05-07 17:07 | 22.98518 | -51.43831 | 38107 ft | 424 kts | 231° |
| 2026-05-07 17:07 | 22.94925 | -51.48851 | 38102 ft | 424 kts | 231° |
| 2026-05-07 17:08 | 22.91308 | -51.53898 | 38083 ft | 423 kts | 231° |
| 2026-05-07 17:08 | 22.88301 | -51.58092 | 38122 ft | 423 kts | 231° |
| 2026-05-07 17:09 | 22.84682 | -51.63133 | 38104 ft | 424 kts | 231° |
| 2026-05-07 17:09 | 22.81054 | -51.68182 | 38101 ft | 424 kts | 231° |
| 2026-05-07 17:10 | 22.77429 | -51.73222 | 38100 ft | 424 kts | 231° |
| 2026-05-07 17:10 | 22.73807 | -51.78254 | 38101 ft | 423 kts | 231° |
| 2026-05-07 17:11 | 22.70184 | -51.83282 | 38108 ft | 423 kts | 231° |
| 2026-05-07 17:11 | 22.66556 | -51.88311 | 38106 ft | 424 kts | 231° |
| 2026-05-07 17:12 | 22.62921 | -51.93346 | 38095 ft | 424 kts | 231° |
| 2026-05-07 17:12 | 22.59289 | -51.98371 | 38094 ft | 424 kts | 231° |
| 2026-05-07 17:13 | 22.55675 | -52.03367 | 38098 ft | 424 kts | 231° |
| 2026-05-07 17:13 | 22.52037 | -52.08392 | 38107 ft | 424 kts | 231° |
| 2026-05-07 17:14 | 22.48393 | -52.13419 | 38096 ft | 424 kts | 231° |
| 2026-05-07 17:14 | 22.44751 | -52.18440 | 38098 ft | 424 kts | 231° |
| 2026-05-07 17:15 | 22.41108 | -52.23457 | 38099 ft | 424 kts | 231° |
| 2026-05-07 17:15 | 22.37468 | -52.28464 | 38117 ft | 423 kts | 231° |
| 2026-05-07 17:16 | 22.33828 | -52.33468 | 38092 ft | 423 kts | 231° |
| 2026-05-07 17:16 | 22.30186 | -52.38469 | 38099 ft | 424 kts | 231° |
| 2026-05-07 17:17 | 22.26538 | -52.43474 | 38098 ft | 424 kts | 231° |
| 2026-05-07 17:17 | 22.22888 | -52.48477 | 38098 ft | 424 kts | 231° |
| 2026-05-07 17:18 | 22.19234 | -52.53480 | 38109 ft | 424 kts | 231° |
| 2026-05-07 17:18 | 22.15599 | -52.58454 | 38086 ft | 425 kts | 231° |
| 2026-05-07 17:19 | 22.11931 | -52.63467 | 38097 ft | 425 kts | 231° |
| 2026-05-07 17:19 | 22.08266 | -52.68472 | 38098 ft | 425 kts | 231° |
| 2026-05-07 17:20 | 22.04597 | -52.73478 | 38093 ft | 425 kts | 231° |
| 2026-05-07 17:20 | 22.00923 | -52.78484 | 38106 ft | 426 kts | 231° |
| 2026-05-07 17:21 | 21.97270 | -52.83459 | 38077 ft | 426 kts | 231° |
| 2026-05-07 17:21 | 21.93592 | -52.88463 | 38093 ft | 426 kts | 231° |
| 2026-05-07 17:22 | 21.89910 | -52.93467 | 38095 ft | 426 kts | 231° |
| 2026-05-07 17:22 | 21.86227 | -52.98469 | 38095 ft | 426 kts | 231° |
| 2026-05-07 17:23 | 21.82536 | -53.03476 | 38098 ft | 427 kts | 231° |
| 2026-05-07 17:23 | 21.78843 | -53.08481 | 38070 ft | 427 kts | 231° |
| 2026-05-07 17:24 | 21.75149 | -53.13483 | 38086 ft | 427 kts | 231° |
| 2026-05-07 17:24 | 21.71448 | -53.18491 | 38091 ft | 427 kts | 231° |
| 2026-05-07 17:25 | 21.67750 | -53.23489 | 38087 ft | 427 kts | 231° |
| 2026-05-07 17:25 | 21.64051 | -53.28485 | 38094 ft | 427 kts | 231° |
| 2026-05-07 17:26 | 21.60345 | -53.33484 | 38092 ft | 428 kts | 231° |
| 2026-05-07 17:26 | 21.56629 | -53.38493 | 38081 ft | 427 kts | 231° |
| 2026-05-07 17:27 | 21.52922 | -53.43486 | 38088 ft | 427 kts | 231° |
| 2026-05-07 17:27 | 21.49211 | -53.48479 | 38087 ft | 427 kts | 231° |
| 2026-05-07 17:28 | 21.45520 | -53.53440 | 38084 ft | 427 kts | 231° |
| 2026-05-07 17:28 | 21.41808 | -53.58426 | 38085 ft | 427 kts | 231° |
| 2026-05-07 17:29 | 21.38089 | -53.63416 | 38076 ft | 427 kts | 231° |
| 2026-05-07 17:29 | 21.34377 | -53.68393 | 38089 ft | 427 kts | 231° |
| 2026-05-07 17:30 | 21.30662 | -53.73368 | 38092 ft | 427 kts | 231° |
| 2026-05-07 17:30 | 21.26949 | -53.78338 | 38084 ft | 427 kts | 231° |
| 2026-05-07 17:31 | 21.23227 | -53.83314 | 38081 ft | 427 kts | 231° |
| 2026-05-07 17:31 | 21.19506 | -53.88285 | 38085 ft | 428 kts | 231° |
| 2026-05-07 17:32 | 21.15810 | -53.93217 | 38081 ft | 427 kts | 231° |